<?xml version="1.0" encoding="UTF-8" standalone="no" ?>
<gpx xmlns="http://www.topografix.com/GPX/1/1" xmlns:xsi="http://www.w3.org/2001/XMLSchema-instance" xsi:schemaLocation="http://www.topografix.com/GPX/1/1 http://www.topografix.com/GPX/1/1/gpx.xsd" version="1.1" creator="VisuGPX - https://www.visugpx.com">
  <metadata>
    <name>010117 Ugny-single tellancourt</name>
    <desc><![CDATA[Parcours roulant, pas de difficultés techniques particulière.
Petit single fun]]></desc>
  </metadata>
  <trk>
    <name><![CDATA[010117 Ugny-single tellancourt]]></name>
    <trkseg>
      <trkpt lat="49.46753" lon="5.70038">
        <ele>283.24560546875</ele>
        <time>2017-01-01T10:22:46Z</time>
      </trkpt>
      <trkpt lat="49.46753" lon="5.70034">
        <ele>288.53295898438</ele>
        <time>2017-01-01T10:22:54Z</time>
      </trkpt>
      <trkpt lat="49.46764" lon="5.70037">
        <ele>289.01354980469</ele>
        <time>2017-01-01T10:23:04Z</time>
      </trkpt>
      <trkpt lat="49.46793" lon="5.70006">
        <ele>292.37817382812</ele>
        <time>2017-01-01T10:23:15Z</time>
      </trkpt>
      <trkpt lat="49.46805" lon="5.69988">
        <ele>292.37817382812</ele>
        <time>2017-01-01T10:23:19Z</time>
      </trkpt>
      <trkpt lat="49.46817" lon="5.69978">
        <ele>292.37817382812</ele>
        <time>2017-01-01T10:23:22Z</time>
      </trkpt>
      <trkpt lat="49.46872" lon="5.69917">
        <ele>292.37817382812</ele>
        <time>2017-01-01T10:23:40Z</time>
      </trkpt>
      <trkpt lat="49.46909" lon="5.69928">
        <ele>291.8974609375</ele>
        <time>2017-01-01T10:23:49Z</time>
      </trkpt>
      <trkpt lat="49.46993" lon="5.69961">
        <ele>287.0908203125</ele>
        <time>2017-01-01T10:24:02Z</time>
      </trkpt>
      <trkpt lat="49.47038" lon="5.69936">
        <ele>286.61022949219</ele>
        <time>2017-01-01T10:24:10Z</time>
      </trkpt>
      <trkpt lat="49.47044" lon="5.69922">
        <ele>287.0908203125</ele>
        <time>2017-01-01T10:24:12Z</time>
      </trkpt>
      <trkpt lat="49.47053" lon="5.69904">
        <ele>287.57141113281</ele>
        <time>2017-01-01T10:24:15Z</time>
      </trkpt>
      <trkpt lat="49.47067" lon="5.69865">
        <ele>289.494140625</ele>
        <time>2017-01-01T10:24:23Z</time>
      </trkpt>
      <trkpt lat="49.4711" lon="5.69831">
        <ele>292.85876464844</ele>
        <time>2017-01-01T10:24:38Z</time>
      </trkpt>
      <trkpt lat="49.47145" lon="5.69801">
        <ele>297.18469238281</ele>
        <time>2017-01-01T10:24:51Z</time>
      </trkpt>
      <trkpt lat="49.47212" lon="5.69748">
        <ele>303.43322753906</ele>
        <time>2017-01-01T10:25:14Z</time>
      </trkpt>
      <trkpt lat="49.47275" lon="5.69723">
        <ele>303.43322753906</ele>
        <time>2017-01-01T10:25:33Z</time>
      </trkpt>
      <trkpt lat="49.47374" lon="5.69678">
        <ele>304.87524414062</ele>
        <time>2017-01-01T10:25:59Z</time>
      </trkpt>
      <trkpt lat="49.47397" lon="5.69665">
        <ele>304.39465332031</ele>
        <time>2017-01-01T10:26:05Z</time>
      </trkpt>
      <trkpt lat="49.47458" lon="5.69652">
        <ele>307.27856445312</ele>
        <time>2017-01-01T10:26:22Z</time>
      </trkpt>
      <trkpt lat="49.47502" lon="5.69654">
        <ele>309.201171875</ele>
        <time>2017-01-01T10:26:35Z</time>
      </trkpt>
      <trkpt lat="49.47524" lon="5.69688">
        <ele>309.68188476562</ele>
        <time>2017-01-01T10:26:43Z</time>
      </trkpt>
      <trkpt lat="49.47536" lon="5.69709">
        <ele>308.72045898438</ele>
        <time>2017-01-01T10:26:47Z</time>
      </trkpt>
      <trkpt lat="49.47598" lon="5.69771">
        <ele>303.91394042969</ele>
        <time>2017-01-01T10:26:58Z</time>
      </trkpt>
      <trkpt lat="49.47685" lon="5.69853">
        <ele>300.06872558594</ele>
        <time>2017-01-01T10:27:12Z</time>
      </trkpt>
      <trkpt lat="49.47708" lon="5.69882">
        <ele>296.22351074219</ele>
        <time>2017-01-01T10:27:17Z</time>
      </trkpt>
      <trkpt lat="49.47749" lon="5.69914">
        <ele>291.41674804688</ele>
        <time>2017-01-01T10:27:24Z</time>
      </trkpt>
      <trkpt lat="49.47785" lon="5.69962">
        <ele>287.0908203125</ele>
        <time>2017-01-01T10:27:30Z</time>
      </trkpt>
      <trkpt lat="49.47805" lon="5.69975">
        <ele>282.76501464844</ele>
        <time>2017-01-01T10:27:35Z</time>
      </trkpt>
      <trkpt lat="49.47821" lon="5.69989">
        <ele>280.84240722656</ele>
        <time>2017-01-01T10:27:45Z</time>
      </trkpt>
      <trkpt lat="49.47827" lon="5.69996">
        <ele>280.36169433594</ele>
        <time>2017-01-01T10:27:47Z</time>
      </trkpt>
      <trkpt lat="49.47827" lon="5.70014">
        <ele>279.880859375</ele>
        <time>2017-01-01T10:27:50Z</time>
      </trkpt>
      <trkpt lat="49.47851" lon="5.70135">
        <ele>276.9970703125</ele>
        <time>2017-01-01T10:28:03Z</time>
      </trkpt>
      <trkpt lat="49.47854" lon="5.70157">
        <ele>276.51635742188</ele>
        <time>2017-01-01T10:28:05Z</time>
      </trkpt>
      <trkpt lat="49.47858" lon="5.70189">
        <ele>275.55505371094</ele>
        <time>2017-01-01T10:28:08Z</time>
      </trkpt>
      <trkpt lat="49.47868" lon="5.70225">
        <ele>274.59375</ele>
        <time>2017-01-01T10:28:11Z</time>
      </trkpt>
      <trkpt lat="49.47926" lon="5.70346">
        <ele>270.74841308594</ele>
        <time>2017-01-01T10:28:23Z</time>
      </trkpt>
      <trkpt lat="49.47952" lon="5.70383">
        <ele>269.787109375</ele>
        <time>2017-01-01T10:28:27Z</time>
      </trkpt>
      <trkpt lat="49.48012" lon="5.7043">
        <ele>268.34509277344</ele>
        <time>2017-01-01T10:28:35Z</time>
      </trkpt>
      <trkpt lat="49.4816" lon="5.70456">
        <ele>256.32873535156</ele>
        <time>2017-01-01T10:28:51Z</time>
      </trkpt>
      <trkpt lat="49.48246" lon="5.704">
        <ele>247.19604492188</ele>
        <time>2017-01-01T10:29:01Z</time>
      </trkpt>
      <trkpt lat="49.48262" lon="5.70386">
        <ele>245.75415039062</ele>
        <time>2017-01-01T10:29:03Z</time>
      </trkpt>
      <trkpt lat="49.48281" lon="5.70375">
        <ele>245.2734375</ele>
        <time>2017-01-01T10:29:05Z</time>
      </trkpt>
      <trkpt lat="49.48321" lon="5.70371">
        <ele>243.35083007812</ele>
        <time>2017-01-01T10:29:10Z</time>
      </trkpt>
      <trkpt lat="49.4833" lon="5.70372">
        <ele>242.87023925781</ele>
        <time>2017-01-01T10:29:12Z</time>
      </trkpt>
      <trkpt lat="49.48339" lon="5.70346">
        <ele>240.46704101562</ele>
        <time>2017-01-01T10:29:17Z</time>
      </trkpt>
      <trkpt lat="49.48375" lon="5.70229">
        <ele>239.50549316406</ele>
        <time>2017-01-01T10:29:30Z</time>
      </trkpt>
      <trkpt lat="49.48414" lon="5.70135">
        <ele>241.90893554688</ele>
        <time>2017-01-01T10:29:44Z</time>
      </trkpt>
      <trkpt lat="49.4842" lon="5.70111">
        <ele>243.35083007812</ele>
        <time>2017-01-01T10:29:48Z</time>
      </trkpt>
      <trkpt lat="49.48451" lon="5.70086">
        <ele>240.46704101562</ele>
        <time>2017-01-01T10:29:57Z</time>
      </trkpt>
      <trkpt lat="49.485" lon="5.70107">
        <ele>238.06359863281</ele>
        <time>2017-01-01T10:30:05Z</time>
      </trkpt>
      <trkpt lat="49.48583" lon="5.70096">
        <ele>237.58288574219</ele>
        <time>2017-01-01T10:30:16Z</time>
      </trkpt>
      <trkpt lat="49.48607" lon="5.70093">
        <ele>239.02490234375</ele>
        <time>2017-01-01T10:30:20Z</time>
      </trkpt>
      <trkpt lat="49.48685" lon="5.70025">
        <ele>238.06359863281</ele>
        <time>2017-01-01T10:30:35Z</time>
      </trkpt>
      <trkpt lat="49.48745" lon="5.69927">
        <ele>239.50549316406</ele>
        <time>2017-01-01T10:30:52Z</time>
      </trkpt>
      <trkpt lat="49.48757" lon="5.69901">
        <ele>239.98620605469</ele>
        <time>2017-01-01T10:30:56Z</time>
      </trkpt>
      <trkpt lat="49.48775" lon="5.69884">
        <ele>241.42822265625</ele>
        <time>2017-01-01T10:31:01Z</time>
      </trkpt>
      <trkpt lat="49.48797" lon="5.69878">
        <ele>241.90893554688</ele>
        <time>2017-01-01T10:31:07Z</time>
      </trkpt>
      <trkpt lat="49.48828" lon="5.69837">
        <ele>242.87023925781</ele>
        <time>2017-01-01T10:31:19Z</time>
      </trkpt>
      <trkpt lat="49.48832" lon="5.69831">
        <ele>242.87023925781</ele>
        <time>2017-01-01T10:31:22Z</time>
      </trkpt>
      <trkpt lat="49.48844" lon="5.69773">
        <ele>248.15759277344</ele>
        <time>2017-01-01T10:31:40Z</time>
      </trkpt>
      <trkpt lat="49.48851" lon="5.69719">
        <ele>254.40600585938</ele>
        <time>2017-01-01T10:31:59Z</time>
      </trkpt>
      <trkpt lat="49.48856" lon="5.69683">
        <ele>258.25134277344</ele>
        <time>2017-01-01T10:32:12Z</time>
      </trkpt>
      <trkpt lat="49.48857" lon="5.69676">
        <ele>258.73193359375</ele>
        <time>2017-01-01T10:32:15Z</time>
      </trkpt>
      <trkpt lat="49.48857" lon="5.6967">
        <ele>259.21264648438</ele>
        <time>2017-01-01T10:32:18Z</time>
      </trkpt>
      <trkpt lat="49.48857" lon="5.69659">
        <ele>260.65454101562</ele>
        <time>2017-01-01T10:32:22Z</time>
      </trkpt>
      <trkpt lat="49.48847" lon="5.69609">
        <ele>264.98059082031</ele>
        <time>2017-01-01T10:32:35Z</time>
      </trkpt>
      <trkpt lat="49.48839" lon="5.69564">
        <ele>265.94189453125</ele>
        <time>2017-01-01T10:32:46Z</time>
      </trkpt>
      <trkpt lat="49.48826" lon="5.69513">
        <ele>267.38391113281</ele>
        <time>2017-01-01T10:32:59Z</time>
      </trkpt>
      <trkpt lat="49.48814" lon="5.69468">
        <ele>267.38391113281</ele>
        <time>2017-01-01T10:33:12Z</time>
      </trkpt>
      <trkpt lat="49.4879" lon="5.69413">
        <ele>264.49987792969</ele>
        <time>2017-01-01T10:33:30Z</time>
      </trkpt>
      <trkpt lat="49.4877" lon="5.69369">
        <ele>266.90319824219</ele>
        <time>2017-01-01T10:33:45Z</time>
      </trkpt>
      <trkpt lat="49.48759" lon="5.69329">
        <ele>268.82580566406</ele>
        <time>2017-01-01T10:33:58Z</time>
      </trkpt>
      <trkpt lat="49.48747" lon="5.69298">
        <ele>270.74841308594</ele>
        <time>2017-01-01T10:34:08Z</time>
      </trkpt>
      <trkpt lat="49.48746" lon="5.69292">
        <ele>270.74841308594</ele>
        <time>2017-01-01T10:34:10Z</time>
      </trkpt>
      <trkpt lat="49.48734" lon="5.69233">
        <ele>270.26770019531</ele>
        <time>2017-01-01T10:34:25Z</time>
      </trkpt>
      <trkpt lat="49.4873" lon="5.69196">
        <ele>275.55505371094</ele>
        <time>2017-01-01T10:34:35Z</time>
      </trkpt>
      <trkpt lat="49.48731" lon="5.69174">
        <ele>277.95825195312</ele>
        <time>2017-01-01T10:34:40Z</time>
      </trkpt>
      <trkpt lat="49.48731" lon="5.69141">
        <ele>282.28430175781</ele>
        <time>2017-01-01T10:34:48Z</time>
      </trkpt>
      <trkpt lat="49.4873" lon="5.69075">
        <ele>286.61022949219</ele>
        <time>2017-01-01T10:35:02Z</time>
      </trkpt>
      <trkpt lat="49.48731" lon="5.69065">
        <ele>287.57141113281</ele>
        <time>2017-01-01T10:35:04Z</time>
      </trkpt>
      <trkpt lat="49.48736" lon="5.69002">
        <ele>289.97485351562</ele>
        <time>2017-01-01T10:35:18Z</time>
      </trkpt>
      <trkpt lat="49.48742" lon="5.68956">
        <ele>294.78137207031</ele>
        <time>2017-01-01T10:35:29Z</time>
      </trkpt>
      <trkpt lat="49.48742" lon="5.68932">
        <ele>296.22351074219</ele>
        <time>2017-01-01T10:35:35Z</time>
      </trkpt>
      <trkpt lat="49.48749" lon="5.68905">
        <ele>293.33935546875</ele>
        <time>2017-01-01T10:35:41Z</time>
      </trkpt>
      <trkpt lat="49.48751" lon="5.68893">
        <ele>293.33935546875</ele>
        <time>2017-01-01T10:35:44Z</time>
      </trkpt>
      <trkpt lat="49.48769" lon="5.68831">
        <ele>292.37817382812</ele>
        <time>2017-01-01T10:35:59Z</time>
      </trkpt>
      <trkpt lat="49.48789" lon="5.68785">
        <ele>296.7041015625</ele>
        <time>2017-01-01T10:36:15Z</time>
      </trkpt>
      <trkpt lat="49.48819" lon="5.68734">
        <ele>296.22351074219</ele>
        <time>2017-01-01T10:36:34Z</time>
      </trkpt>
      <trkpt lat="49.48833" lon="5.68695">
        <ele>302.95251464844</ele>
        <time>2017-01-01T10:36:46Z</time>
      </trkpt>
      <trkpt lat="49.48851" lon="5.68666">
        <ele>309.201171875</ele>
        <time>2017-01-01T10:36:58Z</time>
      </trkpt>
      <trkpt lat="49.48873" lon="5.68634">
        <ele>311.6044921875</ele>
        <time>2017-01-01T10:37:14Z</time>
      </trkpt>
      <trkpt lat="49.4888" lon="5.68615">
        <ele>311.6044921875</ele>
        <time>2017-01-01T10:37:21Z</time>
      </trkpt>
      <trkpt lat="49.48892" lon="5.68574">
        <ele>312.08520507812</ele>
        <time>2017-01-01T10:37:35Z</time>
      </trkpt>
      <trkpt lat="49.48898" lon="5.68523">
        <ele>316.41101074219</ele>
        <time>2017-01-01T10:37:50Z</time>
      </trkpt>
      <trkpt lat="49.48896" lon="5.68503">
        <ele>322.17895507812</ele>
        <time>2017-01-01T10:37:56Z</time>
      </trkpt>
      <trkpt lat="49.489" lon="5.68444">
        <ele>321.69836425781</ele>
        <time>2017-01-01T10:38:11Z</time>
      </trkpt>
      <trkpt lat="49.48912" lon="5.68387">
        <ele>321.2177734375</ele>
        <time>2017-01-01T10:38:26Z</time>
      </trkpt>
      <trkpt lat="49.48926" lon="5.68342">
        <ele>319.29504394531</ele>
        <time>2017-01-01T10:38:37Z</time>
      </trkpt>
      <trkpt lat="49.48943" lon="5.68294">
        <ele>318.33361816406</ele>
        <time>2017-01-01T10:38:48Z</time>
      </trkpt>
      <trkpt lat="49.48978" lon="5.68271">
        <ele>319.77563476562</ele>
        <time>2017-01-01T10:39:00Z</time>
      </trkpt>
      <trkpt lat="49.49016" lon="5.68255">
        <ele>320.25634765625</ele>
        <time>2017-01-01T10:39:12Z</time>
      </trkpt>
      <trkpt lat="49.49037" lon="5.68247">
        <ele>324.1015625</ele>
        <time>2017-01-01T10:39:20Z</time>
      </trkpt>
      <trkpt lat="49.49068" lon="5.68234">
        <ele>327.94677734375</ele>
        <time>2017-01-01T10:39:30Z</time>
      </trkpt>
      <trkpt lat="49.49116" lon="5.68208">
        <ele>330.83093261719</ele>
        <time>2017-01-01T10:39:44Z</time>
      </trkpt>
      <trkpt lat="49.49147" lon="5.68191">
        <ele>333.71472167969</ele>
        <time>2017-01-01T10:39:55Z</time>
      </trkpt>
      <trkpt lat="49.49191" lon="5.68161">
        <ele>332.75354003906</ele>
        <time>2017-01-01T10:40:12Z</time>
      </trkpt>
      <trkpt lat="49.49212" lon="5.6815">
        <ele>334.67614746094</ele>
        <time>2017-01-01T10:40:21Z</time>
      </trkpt>
      <trkpt lat="49.49219" lon="5.68135">
        <ele>335.15673828125</ele>
        <time>2017-01-01T10:40:26Z</time>
      </trkpt>
      <trkpt lat="49.49246" lon="5.68115">
        <ele>335.63732910156</ele>
        <time>2017-01-01T10:40:37Z</time>
      </trkpt>
      <trkpt lat="49.49268" lon="5.68089">
        <ele>334.19543457031</ele>
        <time>2017-01-01T10:40:47Z</time>
      </trkpt>
      <trkpt lat="49.49292" lon="5.68065">
        <ele>335.15673828125</ele>
        <time>2017-01-01T10:40:57Z</time>
      </trkpt>
      <trkpt lat="49.49303" lon="5.68053">
        <ele>334.67614746094</ele>
        <time>2017-01-01T10:41:02Z</time>
      </trkpt>
      <trkpt lat="49.49314" lon="5.68053">
        <ele>333.71472167969</ele>
        <time>2017-01-01T10:41:06Z</time>
      </trkpt>
      <trkpt lat="49.49325" lon="5.68072">
        <ele>332.75354003906</ele>
        <time>2017-01-01T10:41:12Z</time>
      </trkpt>
      <trkpt lat="49.49354" lon="5.68057">
        <ele>333.23413085938</ele>
        <time>2017-01-01T10:41:23Z</time>
      </trkpt>
      <trkpt lat="49.49358" lon="5.68051">
        <ele>333.71472167969</ele>
        <time>2017-01-01T10:41:25Z</time>
      </trkpt>
      <trkpt lat="49.49385" lon="5.68037">
        <ele>334.19543457031</ele>
        <time>2017-01-01T10:41:33Z</time>
      </trkpt>
      <trkpt lat="49.49398" lon="5.68018">
        <ele>334.67614746094</ele>
        <time>2017-01-01T10:41:37Z</time>
      </trkpt>
      <trkpt lat="49.49417" lon="5.68009">
        <ele>334.67614746094</ele>
        <time>2017-01-01T10:41:41Z</time>
      </trkpt>
      <trkpt lat="49.49432" lon="5.68006">
        <ele>335.15673828125</ele>
        <time>2017-01-01T10:41:44Z</time>
      </trkpt>
      <trkpt lat="49.4947" lon="5.67982">
        <ele>329.38891601562</ele>
        <time>2017-01-01T10:41:51Z</time>
      </trkpt>
      <trkpt lat="49.49477" lon="5.67951">
        <ele>327.94677734375</ele>
        <time>2017-01-01T10:41:56Z</time>
      </trkpt>
      <trkpt lat="49.49476" lon="5.67928">
        <ele>326.02416992188</ele>
        <time>2017-01-01T10:41:59Z</time>
      </trkpt>
      <trkpt lat="49.49473" lon="5.67915">
        <ele>328.90832519531</ele>
        <time>2017-01-01T10:42:01Z</time>
      </trkpt>
      <trkpt lat="49.49451" lon="5.67856">
        <ele>333.23413085938</ele>
        <time>2017-01-01T10:42:12Z</time>
      </trkpt>
      <trkpt lat="49.49448" lon="5.67849">
        <ele>333.23413085938</ele>
        <time>2017-01-01T10:42:13Z</time>
      </trkpt>
      <trkpt lat="49.49441" lon="5.67818">
        <ele>333.23413085938</ele>
        <time>2017-01-01T10:42:17Z</time>
      </trkpt>
      <trkpt lat="49.49427" lon="5.67737">
        <ele>331.3115234375</ele>
        <time>2017-01-01T10:42:26Z</time>
      </trkpt>
      <trkpt lat="49.494" lon="5.67663">
        <ele>331.79211425781</ele>
        <time>2017-01-01T10:42:37Z</time>
      </trkpt>
      <trkpt lat="49.49381" lon="5.67578">
        <ele>326.5048828125</ele>
        <time>2017-01-01T10:42:46Z</time>
      </trkpt>
      <trkpt lat="49.49368" lon="5.6755">
        <ele>320.73706054688</ele>
        <time>2017-01-01T10:42:49Z</time>
      </trkpt>
      <trkpt lat="49.49396" lon="5.67516">
        <ele>311.6044921875</ele>
        <time>2017-01-01T10:43:00Z</time>
      </trkpt>
      <trkpt lat="49.49425" lon="5.67487">
        <ele>308.72045898438</ele>
        <time>2017-01-01T10:43:09Z</time>
      </trkpt>
      <trkpt lat="49.49455" lon="5.67452">
        <ele>307.75927734375</ele>
        <time>2017-01-01T10:43:21Z</time>
      </trkpt>
      <trkpt lat="49.49483" lon="5.67432">
        <ele>311.12377929688</ele>
        <time>2017-01-01T10:43:31Z</time>
      </trkpt>
      <trkpt lat="49.49517" lon="5.67412">
        <ele>314.0078125</ele>
        <time>2017-01-01T10:43:43Z</time>
      </trkpt>
      <trkpt lat="49.49542" lon="5.67399">
        <ele>317.37243652344</ele>
        <time>2017-01-01T10:43:52Z</time>
      </trkpt>
      <trkpt lat="49.49554" lon="5.6739">
        <ele>316.41101074219</ele>
        <time>2017-01-01T10:43:56Z</time>
      </trkpt>
      <trkpt lat="49.49564" lon="5.67396">
        <ele>318.81433105469</ele>
        <time>2017-01-01T10:44:00Z</time>
      </trkpt>
      <trkpt lat="49.4958" lon="5.67451">
        <ele>326.02416992188</ele>
        <time>2017-01-01T10:44:11Z</time>
      </trkpt>
      <trkpt lat="49.49588" lon="5.67489">
        <ele>330.83093261719</ele>
        <time>2017-01-01T10:44:22Z</time>
      </trkpt>
      <trkpt lat="49.4959" lon="5.67494">
        <ele>331.79211425781</ele>
        <time>2017-01-01T10:44:24Z</time>
      </trkpt>
      <trkpt lat="49.49604" lon="5.67542">
        <ele>334.19543457031</ele>
        <time>2017-01-01T10:44:41Z</time>
      </trkpt>
      <trkpt lat="49.49607" lon="5.67551">
        <ele>334.19543457031</ele>
        <time>2017-01-01T10:44:45Z</time>
      </trkpt>
      <trkpt lat="49.49614" lon="5.67577">
        <ele>335.63732910156</ele>
        <time>2017-01-01T10:44:53Z</time>
      </trkpt>
      <trkpt lat="49.49616" lon="5.67598">
        <ele>336.59887695312</ele>
        <time>2017-01-01T10:44:59Z</time>
      </trkpt>
      <trkpt lat="49.49619" lon="5.67613">
        <ele>339.96337890625</ele>
        <time>2017-01-01T10:45:03Z</time>
      </trkpt>
      <trkpt lat="49.49632" lon="5.67662">
        <ele>340.44409179688</ele>
        <time>2017-01-01T10:45:18Z</time>
      </trkpt>
      <trkpt lat="49.49638" lon="5.67689">
        <ele>342.84729003906</ele>
        <time>2017-01-01T10:45:25Z</time>
      </trkpt>
      <trkpt lat="49.49643" lon="5.67704">
        <ele>341.88598632812</ele>
        <time>2017-01-01T10:45:29Z</time>
      </trkpt>
      <trkpt lat="49.49646" lon="5.67719">
        <ele>342.84729003906</ele>
        <time>2017-01-01T10:45:33Z</time>
      </trkpt>
      <trkpt lat="49.4966" lon="5.67767">
        <ele>343.80859375</ele>
        <time>2017-01-01T10:45:46Z</time>
      </trkpt>
      <trkpt lat="49.49673" lon="5.67828">
        <ele>343.80859375</ele>
        <time>2017-01-01T10:46:01Z</time>
      </trkpt>
      <trkpt lat="49.49691" lon="5.67883">
        <ele>346.69262695312</ele>
        <time>2017-01-01T10:46:13Z</time>
      </trkpt>
      <trkpt lat="49.497" lon="5.67946">
        <ele>349.09582519531</ele>
        <time>2017-01-01T10:46:25Z</time>
      </trkpt>
      <trkpt lat="49.49717" lon="5.68026">
        <ele>349.09582519531</ele>
        <time>2017-01-01T10:46:40Z</time>
      </trkpt>
      <trkpt lat="49.49734" lon="5.68092">
        <ele>346.69262695312</ele>
        <time>2017-01-01T10:46:53Z</time>
      </trkpt>
      <trkpt lat="49.49752" lon="5.68157">
        <ele>349.57653808594</ele>
        <time>2017-01-01T10:47:05Z</time>
      </trkpt>
      <trkpt lat="49.49771" lon="5.68225">
        <ele>347.17321777344</ele>
        <time>2017-01-01T10:47:16Z</time>
      </trkpt>
      <trkpt lat="49.49772" lon="5.68231">
        <ele>346.69262695312</ele>
        <time>2017-01-01T10:47:17Z</time>
      </trkpt>
      <trkpt lat="49.49783" lon="5.68287">
        <ele>348.615234375</ele>
        <time>2017-01-01T10:47:27Z</time>
      </trkpt>
      <trkpt lat="49.49792" lon="5.68298">
        <ele>345.25061035156</ele>
        <time>2017-01-01T10:47:30Z</time>
      </trkpt>
      <trkpt lat="49.49824" lon="5.68291">
        <ele>349.57653808594</ele>
        <time>2017-01-01T10:47:40Z</time>
      </trkpt>
      <trkpt lat="49.49863" lon="5.68272">
        <ele>348.615234375</ele>
        <time>2017-01-01T10:47:50Z</time>
      </trkpt>
      <trkpt lat="49.49891" lon="5.6827">
        <ele>351.97985839844</ele>
        <time>2017-01-01T10:47:58Z</time>
      </trkpt>
      <trkpt lat="49.49903" lon="5.68279">
        <ele>351.97985839844</ele>
        <time>2017-01-01T10:48:02Z</time>
      </trkpt>
      <trkpt lat="49.49949" lon="5.68291">
        <ele>356.78637695312</ele>
        <time>2017-01-01T10:48:16Z</time>
      </trkpt>
      <trkpt lat="49.49958" lon="5.68299">
        <ele>356.78637695312</ele>
        <time>2017-01-01T10:48:20Z</time>
      </trkpt>
      <trkpt lat="49.50007" lon="5.68292">
        <ele>357.26708984375</ele>
        <time>2017-01-01T10:48:37Z</time>
      </trkpt>
      <trkpt lat="49.50058" lon="5.68261">
        <ele>349.57653808594</ele>
        <time>2017-01-01T10:48:53Z</time>
      </trkpt>
      <trkpt lat="49.50137" lon="5.68184">
        <ele>347.65393066406</ele>
        <time>2017-01-01T10:49:16Z</time>
      </trkpt>
      <trkpt lat="49.50218" lon="5.68068">
        <ele>346.21203613281</ele>
        <time>2017-01-01T10:49:41Z</time>
      </trkpt>
      <trkpt lat="49.50276" lon="5.68013">
        <ele>344.28942871094</ele>
        <time>2017-01-01T10:49:55Z</time>
      </trkpt>
      <trkpt lat="49.50361" lon="5.67955">
        <ele>342.84729003906</ele>
        <time>2017-01-01T10:50:10Z</time>
      </trkpt>
      <trkpt lat="49.50386" lon="5.6794">
        <ele>341.88598632812</ele>
        <time>2017-01-01T10:50:14Z</time>
      </trkpt>
      <trkpt lat="49.50453" lon="5.67882">
        <ele>342.84729003906</ele>
        <time>2017-01-01T10:50:28Z</time>
      </trkpt>
      <trkpt lat="49.50533" lon="5.67803">
        <ele>345.73132324219</ele>
        <time>2017-01-01T10:50:51Z</time>
      </trkpt>
      <trkpt lat="49.50574" lon="5.67747">
        <ele>346.21203613281</ele>
        <time>2017-01-01T10:51:05Z</time>
      </trkpt>
      <trkpt lat="49.50579" lon="5.67737">
        <ele>345.73132324219</ele>
        <time>2017-01-01T10:51:07Z</time>
      </trkpt>
      <trkpt lat="49.50585" lon="5.67712">
        <ele>345.25061035156</ele>
        <time>2017-01-01T10:51:11Z</time>
      </trkpt>
      <trkpt lat="49.506" lon="5.67528">
        <ele>341.88598632812</ele>
        <time>2017-01-01T10:51:31Z</time>
      </trkpt>
      <trkpt lat="49.50605" lon="5.67486">
        <ele>341.88598632812</ele>
        <time>2017-01-01T10:51:35Z</time>
      </trkpt>
      <trkpt lat="49.50626" lon="5.67458">
        <ele>343.80859375</ele>
        <time>2017-01-01T10:51:40Z</time>
      </trkpt>
      <trkpt lat="49.50706" lon="5.67422">
        <ele>345.25061035156</ele>
        <time>2017-01-01T10:51:57Z</time>
      </trkpt>
      <trkpt lat="49.50831" lon="5.6736">
        <ele>347.17321777344</ele>
        <time>2017-01-01T10:52:25Z</time>
      </trkpt>
      <trkpt lat="49.50959" lon="5.67306">
        <ele>347.17321777344</ele>
        <time>2017-01-01T10:52:52Z</time>
      </trkpt>
      <trkpt lat="49.51027" lon="5.67272">
        <ele>349.09582519531</ele>
        <time>2017-01-01T10:53:09Z</time>
      </trkpt>
      <trkpt lat="49.51042" lon="5.67266">
        <ele>349.57653808594</ele>
        <time>2017-01-01T10:53:13Z</time>
      </trkpt>
      <trkpt lat="49.51102" lon="5.67217">
        <ele>353.421875</ele>
        <time>2017-01-01T10:53:34Z</time>
      </trkpt>
      <trkpt lat="49.51127" lon="5.67182">
        <ele>354.86376953125</ele>
        <time>2017-01-01T10:53:50Z</time>
      </trkpt>
      <trkpt lat="49.51129" lon="5.67174">
        <ele>356.30578613281</ele>
        <time>2017-01-01T10:53:53Z</time>
      </trkpt>
      <trkpt lat="49.51133" lon="5.67164">
        <ele>358.708984375</ele>
        <time>2017-01-01T10:53:58Z</time>
      </trkpt>
      <trkpt lat="49.51126" lon="5.67129">
        <ele>358.708984375</ele>
        <time>2017-01-01T10:54:10Z</time>
      </trkpt>
      <trkpt lat="49.51116" lon="5.671">
        <ele>359.18969726562</ele>
        <time>2017-01-01T10:54:18Z</time>
      </trkpt>
      <trkpt lat="49.51107" lon="5.6706">
        <ele>361.11242675781</ele>
        <time>2017-01-01T10:54:29Z</time>
      </trkpt>
      <trkpt lat="49.51104" lon="5.67037">
        <ele>361.59313964844</ele>
        <time>2017-01-01T10:54:36Z</time>
      </trkpt>
      <trkpt lat="49.51095" lon="5.66999">
        <ele>365.9189453125</ele>
        <time>2017-01-01T10:54:47Z</time>
      </trkpt>
      <trkpt lat="49.51088" lon="5.66952">
        <ele>366.39953613281</ele>
        <time>2017-01-01T10:55:01Z</time>
      </trkpt>
      <trkpt lat="49.51087" lon="5.66936">
        <ele>364.95764160156</ele>
        <time>2017-01-01T10:55:07Z</time>
      </trkpt>
      <trkpt lat="49.51085" lon="5.6693">
        <ele>367.36096191406</ele>
        <time>2017-01-01T10:55:20Z</time>
      </trkpt>
      <trkpt lat="49.51085" lon="5.66935">
        <ele>366.88024902344</ele>
        <time>2017-01-01T10:55:23Z</time>
      </trkpt>
      <trkpt lat="49.51071" lon="5.66935">
        <ele>367.84155273438</ele>
        <time>2017-01-01T10:55:38Z</time>
      </trkpt>
      <trkpt lat="49.51067" lon="5.66936">
        <ele>368.322265625</ele>
        <time>2017-01-01T10:55:45Z</time>
      </trkpt>
      <trkpt lat="49.51065" lon="5.66934">
        <ele>367.84155273438</ele>
        <time>2017-01-01T10:55:47Z</time>
      </trkpt>
      <trkpt lat="49.51047" lon="5.66938">
        <ele>363.99633789062</ele>
        <time>2017-01-01T10:55:55Z</time>
      </trkpt>
      <trkpt lat="49.51048" lon="5.66943">
        <ele>362.5</ele>
        <time>2017-01-01T18:07:34Z</time>
      </trkpt>
      <trkpt lat="49.51048" lon="5.66852">
        <ele>363.7</ele>
      </trkpt>
      <trkpt lat="49.51048" lon="5.66765">
        <ele>365.1</ele>
      </trkpt>
      <trkpt lat="49.51057" lon="5.66746">
        <ele>366.2</ele>
      </trkpt>
      <trkpt lat="49.51044" lon="5.66735">
        <ele>361.59313964844</ele>
        <time>2017-01-01T10:57:34Z</time>
      </trkpt>
      <trkpt lat="49.5104" lon="5.66714">
        <ele>374.09008789062</ele>
        <time>2017-01-01T10:57:39Z</time>
      </trkpt>
      <trkpt lat="49.51039" lon="5.66702">
        <ele>372.64819335938</ele>
        <time>2017-01-01T10:57:43Z</time>
      </trkpt>
      <trkpt lat="49.51034" lon="5.66686">
        <ele>371.20629882812</ele>
        <time>2017-01-01T10:57:48Z</time>
      </trkpt>
      <trkpt lat="49.51028" lon="5.66663">
        <ele>371.68688964844</ele>
        <time>2017-01-01T10:57:56Z</time>
      </trkpt>
      <trkpt lat="49.51028" lon="5.6666">
        <ele>371.68688964844</ele>
        <time>2017-01-01T10:57:57Z</time>
      </trkpt>
      <trkpt lat="49.51008" lon="5.6661">
        <ele>371.68688964844</ele>
        <time>2017-01-01T10:58:13Z</time>
      </trkpt>
      <trkpt lat="49.51002" lon="5.66586">
        <ele>371.20629882812</ele>
        <time>2017-01-01T10:58:20Z</time>
      </trkpt>
      <trkpt lat="49.51004" lon="5.66557">
        <ele>369.76428222656</ele>
        <time>2017-01-01T10:58:30Z</time>
      </trkpt>
      <trkpt lat="49.50997" lon="5.66536">
        <ele>373.12890625</ele>
        <time>2017-01-01T10:58:35Z</time>
      </trkpt>
      <trkpt lat="49.50996" lon="5.66505">
        <ele>376.49353027344</ele>
        <time>2017-01-01T10:58:46Z</time>
      </trkpt>
      <trkpt lat="49.50994" lon="5.66492">
        <ele>380.81945800781</ele>
        <time>2017-01-01T10:58:53Z</time>
      </trkpt>
      <trkpt lat="49.51013" lon="5.66472">
        <ele>383.22265625</ele>
        <time>2017-01-01T10:59:09Z</time>
      </trkpt>
      <trkpt lat="49.51023" lon="5.66461">
        <ele>383.22265625</ele>
        <time>2017-01-01T10:59:18Z</time>
      </trkpt>
      <trkpt lat="49.51033" lon="5.66452">
        <ele>384.66479492188</ele>
        <time>2017-01-01T10:59:28Z</time>
      </trkpt>
      <trkpt lat="49.51047" lon="5.66438">
        <ele>385.14538574219</ele>
        <time>2017-01-01T10:59:42Z</time>
      </trkpt>
      <trkpt lat="49.51055" lon="5.66425">
        <ele>384.18408203125</ele>
        <time>2017-01-01T10:59:48Z</time>
      </trkpt>
      <trkpt lat="49.5108" lon="5.66413">
        <ele>382.74206542969</ele>
        <time>2017-01-01T11:00:00Z</time>
      </trkpt>
      <trkpt lat="49.51107" lon="5.66394">
        <ele>381.30004882812</ele>
        <time>2017-01-01T11:00:11Z</time>
      </trkpt>
      <trkpt lat="49.51128" lon="5.66378">
        <ele>381.78063964844</ele>
        <time>2017-01-01T11:00:20Z</time>
      </trkpt>
      <trkpt lat="49.51156" lon="5.66351">
        <ele>380.81945800781</ele>
        <time>2017-01-01T11:00:33Z</time>
      </trkpt>
      <trkpt lat="49.51181" lon="5.6633">
        <ele>381.30004882812</ele>
        <time>2017-01-01T11:00:46Z</time>
      </trkpt>
      <trkpt lat="49.51198" lon="5.66311">
        <ele>383.70324707031</ele>
        <time>2017-01-01T11:00:54Z</time>
      </trkpt>
      <trkpt lat="49.51206" lon="5.663">
        <ele>382.26135253906</ele>
        <time>2017-01-01T11:00:58Z</time>
      </trkpt>
      <trkpt lat="49.51199" lon="5.66254">
        <ele>382.26135253906</ele>
        <time>2017-01-01T11:01:11Z</time>
      </trkpt>
      <trkpt lat="49.51186" lon="5.66211">
        <ele>381.30004882812</ele>
        <time>2017-01-01T11:01:23Z</time>
      </trkpt>
      <trkpt lat="49.5117" lon="5.66167">
        <ele>380.81945800781</ele>
        <time>2017-01-01T11:01:33Z</time>
      </trkpt>
      <trkpt lat="49.51156" lon="5.6612">
        <ele>383.22265625</ele>
        <time>2017-01-01T11:01:44Z</time>
      </trkpt>
      <trkpt lat="49.51138" lon="5.66074">
        <ele>385.6259765625</ele>
        <time>2017-01-01T11:01:58Z</time>
      </trkpt>
      <trkpt lat="49.5113" lon="5.66056">
        <ele>386.58740234375</ele>
        <time>2017-01-01T11:02:08Z</time>
      </trkpt>
      <trkpt lat="49.51113" lon="5.66012">
        <ele>388.029296875</ele>
        <time>2017-01-01T11:02:21Z</time>
      </trkpt>
      <trkpt lat="49.51098" lon="5.6596">
        <ele>386.10668945312</ele>
        <time>2017-01-01T11:02:35Z</time>
      </trkpt>
      <trkpt lat="49.51083" lon="5.65919">
        <ele>385.6259765625</ele>
        <time>2017-01-01T11:02:45Z</time>
      </trkpt>
      <trkpt lat="49.51077" lon="5.65909">
        <ele>386.10668945312</ele>
        <time>2017-01-01T11:02:48Z</time>
      </trkpt>
      <trkpt lat="49.51061" lon="5.65859">
        <ele>383.22265625</ele>
        <time>2017-01-01T11:02:59Z</time>
      </trkpt>
      <trkpt lat="49.5105" lon="5.65833">
        <ele>382.26135253906</ele>
        <time>2017-01-01T11:03:05Z</time>
      </trkpt>
      <trkpt lat="49.51057" lon="5.65812">
        <ele>383.70324707031</ele>
        <time>2017-01-01T11:03:11Z</time>
      </trkpt>
      <trkpt lat="49.51081" lon="5.65789">
        <ele>386.58740234375</ele>
        <time>2017-01-01T11:03:23Z</time>
      </trkpt>
      <trkpt lat="49.51109" lon="5.6576">
        <ele>387.54858398438</ele>
        <time>2017-01-01T11:03:35Z</time>
      </trkpt>
      <trkpt lat="49.51131" lon="5.65735">
        <ele>387.06799316406</ele>
        <time>2017-01-01T11:03:46Z</time>
      </trkpt>
      <trkpt lat="49.51132" lon="5.65732">
        <ele>387.06799316406</ele>
        <time>2017-01-01T11:03:47Z</time>
      </trkpt>
      <trkpt lat="49.51129" lon="5.6572">
        <ele>387.06799316406</ele>
        <time>2017-01-01T11:03:51Z</time>
      </trkpt>
      <trkpt lat="49.51106" lon="5.65654">
        <ele>387.54858398438</ele>
        <time>2017-01-01T11:04:07Z</time>
      </trkpt>
      <trkpt lat="49.51086" lon="5.65596">
        <ele>388.99060058594</ele>
        <time>2017-01-01T11:04:20Z</time>
      </trkpt>
      <trkpt lat="49.51076" lon="5.6558">
        <ele>387.54858398438</ele>
        <time>2017-01-01T11:04:24Z</time>
      </trkpt>
      <trkpt lat="49.51063" lon="5.65518">
        <ele>388.029296875</ele>
        <time>2017-01-01T11:04:37Z</time>
      </trkpt>
      <trkpt lat="49.51055" lon="5.65467">
        <ele>383.22265625</ele>
        <time>2017-01-01T11:04:47Z</time>
      </trkpt>
      <trkpt lat="49.5106" lon="5.65422">
        <ele>383.70324707031</ele>
        <time>2017-01-01T11:04:58Z</time>
      </trkpt>
      <trkpt lat="49.51055" lon="5.65403">
        <ele>382.26135253906</ele>
        <time>2017-01-01T11:05:02Z</time>
      </trkpt>
      <trkpt lat="49.51052" lon="5.65345">
        <ele>378.89685058594</ele>
        <time>2017-01-01T11:05:14Z</time>
      </trkpt>
      <trkpt lat="49.51049" lon="5.65293">
        <ele>382.74206542969</ele>
        <time>2017-01-01T11:05:25Z</time>
      </trkpt>
      <trkpt lat="49.51052" lon="5.65233">
        <ele>382.74206542969</ele>
        <time>2017-01-01T11:05:39Z</time>
      </trkpt>
      <trkpt lat="49.51062" lon="5.6522">
        <ele>382.26135253906</ele>
        <time>2017-01-01T11:05:44Z</time>
      </trkpt>
      <trkpt lat="49.51083" lon="5.65172">
        <ele>381.78063964844</ele>
        <time>2017-01-01T11:05:57Z</time>
      </trkpt>
      <trkpt lat="49.51105" lon="5.65157">
        <ele>382.74206542969</ele>
        <time>2017-01-01T11:06:05Z</time>
      </trkpt>
      <trkpt lat="49.51122" lon="5.65146">
        <ele>382.26135253906</ele>
        <time>2017-01-01T11:06:10Z</time>
      </trkpt>
      <trkpt lat="49.51145" lon="5.65122">
        <ele>382.26135253906</ele>
        <time>2017-01-01T11:06:17Z</time>
      </trkpt>
      <trkpt lat="49.51169" lon="5.65105">
        <ele>382.26135253906</ele>
        <time>2017-01-01T11:06:25Z</time>
      </trkpt>
      <trkpt lat="49.51205" lon="5.65079">
        <ele>384.66479492188</ele>
        <time>2017-01-01T11:06:37Z</time>
      </trkpt>
      <trkpt lat="49.51237" lon="5.65054">
        <ele>385.6259765625</ele>
        <time>2017-01-01T11:06:48Z</time>
      </trkpt>
      <trkpt lat="49.51267" lon="5.65028">
        <ele>386.10668945312</ele>
        <time>2017-01-01T11:06:58Z</time>
      </trkpt>
      <trkpt lat="49.51298" lon="5.65008">
        <ele>388.51000976562</ele>
        <time>2017-01-01T11:07:10Z</time>
      </trkpt>
      <trkpt lat="49.51332" lon="5.64996">
        <ele>389.47119140625</ele>
        <time>2017-01-01T11:07:22Z</time>
      </trkpt>
      <trkpt lat="49.51363" lon="5.64982">
        <ele>389.95190429688</ele>
        <time>2017-01-01T11:07:33Z</time>
      </trkpt>
      <trkpt lat="49.5139" lon="5.64962">
        <ele>392.35534667969</ele>
        <time>2017-01-01T11:07:43Z</time>
      </trkpt>
      <trkpt lat="49.51415" lon="5.64951">
        <ele>394.75854492188</ele>
        <time>2017-01-01T11:07:52Z</time>
      </trkpt>
      <trkpt lat="49.51434" lon="5.64934">
        <ele>394.75854492188</ele>
        <time>2017-01-01T11:08:00Z</time>
      </trkpt>
      <trkpt lat="49.51461" lon="5.64904">
        <ele>397.16174316406</ele>
        <time>2017-01-01T11:08:11Z</time>
      </trkpt>
      <trkpt lat="49.51491" lon="5.6487">
        <ele>398.60375976562</ele>
        <time>2017-01-01T11:08:24Z</time>
      </trkpt>
      <trkpt lat="49.51523" lon="5.6485">
        <ele>398.12316894531</ele>
        <time>2017-01-01T11:08:35Z</time>
      </trkpt>
      <trkpt lat="49.51525" lon="5.64849">
        <ele>398.60375976562</ele>
        <time>2017-01-01T11:08:36Z</time>
      </trkpt>
      <trkpt lat="49.51535" lon="5.64835">
        <ele>398.60375976562</ele>
        <time>2017-01-01T11:08:41Z</time>
      </trkpt>
      <trkpt lat="49.51542" lon="5.64822">
        <ele>398.60375976562</ele>
        <time>2017-01-01T11:08:45Z</time>
      </trkpt>
      <trkpt lat="49.51537" lon="5.64807">
        <ele>397.16174316406</ele>
        <time>2017-01-01T11:08:49Z</time>
      </trkpt>
      <trkpt lat="49.51532" lon="5.64799">
        <ele>396.20056152344</ele>
        <time>2017-01-01T11:08:52Z</time>
      </trkpt>
      <trkpt lat="49.51534" lon="5.64789">
        <ele>395.71984863281</ele>
        <time>2017-01-01T11:08:55Z</time>
      </trkpt>
      <trkpt lat="49.51539" lon="5.64747">
        <ele>393.79724121094</ele>
        <time>2017-01-01T11:09:04Z</time>
      </trkpt>
      <trkpt lat="49.51545" lon="5.64728">
        <ele>394.75854492188</ele>
        <time>2017-01-01T11:09:15Z</time>
      </trkpt>
      <trkpt lat="49.51547" lon="5.64727">
        <ele>395.23913574219</ele>
        <time>2017-01-01T11:09:19Z</time>
      </trkpt>
      <trkpt lat="49.51567" lon="5.64707">
        <ele>394.75854492188</ele>
        <time>2017-01-01T11:09:28Z</time>
      </trkpt>
      <trkpt lat="49.51588" lon="5.6469">
        <ele>396.20056152344</ele>
        <time>2017-01-01T11:09:35Z</time>
      </trkpt>
      <trkpt lat="49.51611" lon="5.64695">
        <ele>393.79724121094</ele>
        <time>2017-01-01T11:09:40Z</time>
      </trkpt>
      <trkpt lat="49.51622" lon="5.64699">
        <ele>394.27795410156</ele>
        <time>2017-01-01T11:09:43Z</time>
      </trkpt>
      <trkpt lat="49.51626" lon="5.64693">
        <ele>393.79724121094</ele>
        <time>2017-01-01T11:09:45Z</time>
      </trkpt>
      <trkpt lat="49.51658" lon="5.64705">
        <ele>388.51000976562</ele>
        <time>2017-01-01T11:09:54Z</time>
      </trkpt>
      <trkpt lat="49.51685" lon="5.64725">
        <ele>384.66479492188</ele>
        <time>2017-01-01T11:10:02Z</time>
      </trkpt>
      <trkpt lat="49.51706" lon="5.64748">
        <ele>381.30004882812</ele>
        <time>2017-01-01T11:10:08Z</time>
      </trkpt>
      <trkpt lat="49.5173" lon="5.6475">
        <ele>383.70324707031</ele>
        <time>2017-01-01T11:10:14Z</time>
      </trkpt>
      <trkpt lat="49.51753" lon="5.64759">
        <ele>381.30004882812</ele>
        <time>2017-01-01T11:10:21Z</time>
      </trkpt>
      <trkpt lat="49.51767" lon="5.64793">
        <ele>381.30004882812</ele>
        <time>2017-01-01T11:10:30Z</time>
      </trkpt>
      <trkpt lat="49.51781" lon="5.64804">
        <ele>383.22265625</ele>
        <time>2017-01-01T11:10:35Z</time>
      </trkpt>
      <trkpt lat="49.51795" lon="5.64804">
        <ele>385.14538574219</ele>
        <time>2017-01-01T11:10:41Z</time>
      </trkpt>
      <trkpt lat="49.51807" lon="5.64813">
        <ele>385.14538574219</ele>
        <time>2017-01-01T11:10:45Z</time>
      </trkpt>
      <trkpt lat="49.51814" lon="5.64829">
        <ele>384.18408203125</ele>
        <time>2017-01-01T11:10:51Z</time>
      </trkpt>
      <trkpt lat="49.5181" lon="5.64835">
        <ele>385.6259765625</ele>
        <time>2017-01-01T11:10:55Z</time>
      </trkpt>
      <trkpt lat="49.51804" lon="5.64844">
        <ele>387.54858398438</ele>
        <time>2017-01-01T11:10:59Z</time>
      </trkpt>
      <trkpt lat="49.51788" lon="5.64868">
        <ele>392.8359375</ele>
        <time>2017-01-01T11:11:10Z</time>
      </trkpt>
      <trkpt lat="49.51781" lon="5.64881">
        <ele>392.8359375</ele>
        <time>2017-01-01T11:11:13Z</time>
      </trkpt>
      <trkpt lat="49.51771" lon="5.64909">
        <ele>393.79724121094</ele>
        <time>2017-01-01T11:11:21Z</time>
      </trkpt>
      <trkpt lat="49.51783" lon="5.6496">
        <ele>387.54858398438</ele>
        <time>2017-01-01T11:11:34Z</time>
      </trkpt>
      <trkpt lat="49.51787" lon="5.64989">
        <ele>388.51000976562</ele>
        <time>2017-01-01T11:11:42Z</time>
      </trkpt>
      <trkpt lat="49.51808" lon="5.65018">
        <ele>387.54858398438</ele>
        <time>2017-01-01T11:11:52Z</time>
      </trkpt>
      <trkpt lat="49.51842" lon="5.65069">
        <ele>385.14538574219</ele>
        <time>2017-01-01T11:12:08Z</time>
      </trkpt>
      <trkpt lat="49.51864" lon="5.65102">
        <ele>386.58740234375</ele>
        <time>2017-01-01T11:12:20Z</time>
      </trkpt>
      <trkpt lat="49.5187" lon="5.65107">
        <ele>386.58740234375</ele>
        <time>2017-01-01T11:12:23Z</time>
      </trkpt>
      <trkpt lat="49.51889" lon="5.65109">
        <ele>386.58740234375</ele>
        <time>2017-01-01T11:12:36Z</time>
      </trkpt>
      <trkpt lat="49.51896" lon="5.65122">
        <ele>385.14538574219</ele>
        <time>2017-01-01T11:12:44Z</time>
      </trkpt>
      <trkpt lat="49.51898" lon="5.65134">
        <ele>386.10668945312</ele>
        <time>2017-01-01T11:12:49Z</time>
      </trkpt>
      <trkpt lat="49.51896" lon="5.6514">
        <ele>386.10668945312</ele>
        <time>2017-01-01T11:12:53Z</time>
      </trkpt>
      <trkpt lat="49.51898" lon="5.65151">
        <ele>386.10668945312</ele>
        <time>2017-01-01T11:12:58Z</time>
      </trkpt>
      <trkpt lat="49.51911" lon="5.65148">
        <ele>389.47119140625</ele>
        <time>2017-01-01T11:13:09Z</time>
      </trkpt>
      <trkpt lat="49.51915" lon="5.65146">
        <ele>389.47119140625</ele>
        <time>2017-01-01T11:13:11Z</time>
      </trkpt>
      <trkpt lat="49.51938" lon="5.65152">
        <ele>392.8359375</ele>
        <time>2017-01-01T11:13:25Z</time>
      </trkpt>
      <trkpt lat="49.5196" lon="5.65146">
        <ele>389.95190429688</ele>
        <time>2017-01-01T11:13:38Z</time>
      </trkpt>
      <trkpt lat="49.51978" lon="5.65151">
        <ele>391.39379882812</ele>
        <time>2017-01-01T11:13:49Z</time>
      </trkpt>
      <trkpt lat="49.5198" lon="5.65152">
        <ele>391.39379882812</ele>
        <time>2017-01-01T11:13:50Z</time>
      </trkpt>
      <trkpt lat="49.51984" lon="5.65152">
        <ele>391.39379882812</ele>
        <time>2017-01-01T11:13:53Z</time>
      </trkpt>
      <trkpt lat="49.51987" lon="5.65145">
        <ele>391.39379882812</ele>
        <time>2017-01-01T11:13:57Z</time>
      </trkpt>
      <trkpt lat="49.51997" lon="5.6511">
        <ele>388.99060058594</ele>
        <time>2017-01-01T11:14:08Z</time>
      </trkpt>
      <trkpt lat="49.52008" lon="5.65083">
        <ele>386.10668945312</ele>
        <time>2017-01-01T11:14:14Z</time>
      </trkpt>
      <trkpt lat="49.52019" lon="5.64953">
        <ele>376.01281738281</ele>
        <time>2017-01-01T11:14:30Z</time>
      </trkpt>
      <trkpt lat="49.52024" lon="5.64819">
        <ele>368.80297851562</ele>
        <time>2017-01-01T11:14:44Z</time>
      </trkpt>
      <trkpt lat="49.52034" lon="5.64799">
        <ele>367.36096191406</ele>
        <time>2017-01-01T11:14:50Z</time>
      </trkpt>
      <trkpt lat="49.52081" lon="5.64781">
        <ele>367.84155273438</ele>
        <time>2017-01-01T11:15:04Z</time>
      </trkpt>
      <trkpt lat="49.52099" lon="5.64763">
        <ele>364.95764160156</ele>
        <time>2017-01-01T11:15:10Z</time>
      </trkpt>
      <trkpt lat="49.52098" lon="5.64757">
        <ele>363.51574707031</ele>
        <time>2017-01-01T11:15:13Z</time>
      </trkpt>
      <trkpt lat="49.52094" lon="5.64749">
        <ele>363.51574707031</ele>
        <time>2017-01-01T11:15:17Z</time>
      </trkpt>
      <trkpt lat="49.52088" lon="5.64703">
        <ele>362.07373046875</ele>
        <time>2017-01-01T11:15:28Z</time>
      </trkpt>
      <trkpt lat="49.52081" lon="5.64696">
        <ele>362.07373046875</ele>
        <time>2017-01-01T11:15:31Z</time>
      </trkpt>
      <trkpt lat="49.52078" lon="5.64673">
        <ele>363.03503417969</ele>
        <time>2017-01-01T11:15:42Z</time>
      </trkpt>
      <trkpt lat="49.52089" lon="5.64653">
        <ele>364.95764160156</ele>
        <time>2017-01-01T11:15:47Z</time>
      </trkpt>
      <trkpt lat="49.52091" lon="5.64631">
        <ele>365.9189453125</ele>
        <time>2017-01-01T11:15:51Z</time>
      </trkpt>
      <trkpt lat="49.5209" lon="5.64585">
        <ele>367.36096191406</ele>
        <time>2017-01-01T11:16:01Z</time>
      </trkpt>
      <trkpt lat="49.52093" lon="5.64541">
        <ele>369.28369140625</ele>
        <time>2017-01-01T11:16:07Z</time>
      </trkpt>
      <trkpt lat="49.52091" lon="5.64472">
        <ele>370.24487304688</ele>
        <time>2017-01-01T11:16:17Z</time>
      </trkpt>
      <trkpt lat="49.52081" lon="5.64432">
        <ele>369.76428222656</ele>
        <time>2017-01-01T11:16:25Z</time>
      </trkpt>
      <trkpt lat="49.52077" lon="5.64415">
        <ele>371.20629882812</ele>
        <time>2017-01-01T11:16:29Z</time>
      </trkpt>
      <trkpt lat="49.52067" lon="5.64383">
        <ele>371.20629882812</ele>
        <time>2017-01-01T11:16:35Z</time>
      </trkpt>
      <trkpt lat="49.52058" lon="5.64363">
        <ele>373.12890625</ele>
        <time>2017-01-01T11:16:43Z</time>
      </trkpt>
      <trkpt lat="49.52056" lon="5.64347">
        <ele>374.57080078125</ele>
        <time>2017-01-01T11:16:49Z</time>
      </trkpt>
      <trkpt lat="49.52059" lon="5.64336">
        <ele>372.16748046875</ele>
        <time>2017-01-01T11:16:53Z</time>
      </trkpt>
      <trkpt lat="49.52055" lon="5.64308">
        <ele>367.84155273438</ele>
        <time>2017-01-01T11:17:01Z</time>
      </trkpt>
      <trkpt lat="49.52056" lon="5.64282">
        <ele>363.99633789062</ele>
        <time>2017-01-01T11:17:09Z</time>
      </trkpt>
      <trkpt lat="49.52047" lon="5.64252">
        <ele>365.9189453125</ele>
        <time>2017-01-01T11:17:18Z</time>
      </trkpt>
      <trkpt lat="49.5203" lon="5.64243">
        <ele>370.7255859375</ele>
        <time>2017-01-01T11:17:28Z</time>
      </trkpt>
      <trkpt lat="49.52017" lon="5.64245">
        <ele>379.37744140625</ele>
        <time>2017-01-01T11:17:38Z</time>
      </trkpt>
      <trkpt lat="49.52001" lon="5.6425">
        <ele>386.10668945312</ele>
        <time>2017-01-01T11:17:51Z</time>
      </trkpt>
      <trkpt lat="49.51993" lon="5.64251">
        <ele>388.029296875</ele>
        <time>2017-01-01T11:17:57Z</time>
      </trkpt>
      <trkpt lat="49.51981" lon="5.64252">
        <ele>390.4326171875</ele>
        <time>2017-01-01T11:18:06Z</time>
      </trkpt>
      <trkpt lat="49.51969" lon="5.64243">
        <ele>391.39379882812</ele>
        <time>2017-01-01T11:18:15Z</time>
      </trkpt>
      <trkpt lat="49.51946" lon="5.64239">
        <ele>391.39379882812</ele>
        <time>2017-01-01T11:18:28Z</time>
      </trkpt>
      <trkpt lat="49.51921" lon="5.64243">
        <ele>392.8359375</ele>
        <time>2017-01-01T11:18:42Z</time>
      </trkpt>
      <trkpt lat="49.51892" lon="5.64244">
        <ele>392.8359375</ele>
        <time>2017-01-01T11:18:56Z</time>
      </trkpt>
      <trkpt lat="49.5189" lon="5.64243">
        <ele>392.8359375</ele>
        <time>2017-01-01T11:18:58Z</time>
      </trkpt>
      <trkpt lat="49.51866" lon="5.64226">
        <ele>390.91320800781</ele>
        <time>2017-01-01T11:19:11Z</time>
      </trkpt>
      <trkpt lat="49.51858" lon="5.6421">
        <ele>391.39379882812</ele>
        <time>2017-01-01T11:19:20Z</time>
      </trkpt>
      <trkpt lat="49.51862" lon="5.642">
        <ele>393.31652832031</ele>
        <time>2017-01-01T11:19:26Z</time>
      </trkpt>
      <trkpt lat="49.51865" lon="5.64172">
        <ele>392.35534667969</ele>
        <time>2017-01-01T11:19:33Z</time>
      </trkpt>
      <trkpt lat="49.51873" lon="5.64129">
        <ele>388.99060058594</ele>
        <time>2017-01-01T11:19:48Z</time>
      </trkpt>
      <trkpt lat="49.51873" lon="5.6409">
        <ele>387.06799316406</ele>
        <time>2017-01-01T11:20:00Z</time>
      </trkpt>
      <trkpt lat="49.51871" lon="5.64055">
        <ele>388.51000976562</ele>
        <time>2017-01-01T11:20:13Z</time>
      </trkpt>
      <trkpt lat="49.51873" lon="5.64043">
        <ele>387.54858398438</ele>
        <time>2017-01-01T11:20:17Z</time>
      </trkpt>
      <trkpt lat="49.51866" lon="5.64019">
        <ele>388.51000976562</ele>
        <time>2017-01-01T11:20:27Z</time>
      </trkpt>
      <trkpt lat="49.51857" lon="5.63991">
        <ele>388.99060058594</ele>
        <time>2017-01-01T11:20:38Z</time>
      </trkpt>
      <trkpt lat="49.51857" lon="5.63984">
        <ele>390.4326171875</ele>
        <time>2017-01-01T11:20:41Z</time>
      </trkpt>
      <trkpt lat="49.51855" lon="5.63975">
        <ele>391.87451171875</ele>
        <time>2017-01-01T11:20:45Z</time>
      </trkpt>
      <trkpt lat="49.51854" lon="5.63947">
        <ele>391.87451171875</ele>
        <time>2017-01-01T11:20:54Z</time>
      </trkpt>
      <trkpt lat="49.51851" lon="5.63922">
        <ele>392.35534667969</ele>
        <time>2017-01-01T11:21:03Z</time>
      </trkpt>
      <trkpt lat="49.51851" lon="5.63905">
        <ele>394.75854492188</ele>
        <time>2017-01-01T11:21:09Z</time>
      </trkpt>
      <trkpt lat="49.51853" lon="5.6389">
        <ele>394.27795410156</ele>
        <time>2017-01-01T11:21:13Z</time>
      </trkpt>
      <trkpt lat="49.51855" lon="5.63885">
        <ele>394.27795410156</ele>
        <time>2017-01-01T11:21:15Z</time>
      </trkpt>
      <trkpt lat="49.51863" lon="5.63848">
        <ele>390.91320800781</ele>
        <time>2017-01-01T11:21:27Z</time>
      </trkpt>
      <trkpt lat="49.51866" lon="5.63835">
        <ele>390.4326171875</ele>
        <time>2017-01-01T11:21:31Z</time>
      </trkpt>
      <trkpt lat="49.51871" lon="5.63788">
        <ele>392.8359375</ele>
        <time>2017-01-01T11:21:46Z</time>
      </trkpt>
      <trkpt lat="49.5188" lon="5.63757">
        <ele>391.87451171875</ele>
        <time>2017-01-01T11:21:54Z</time>
      </trkpt>
      <trkpt lat="49.51882" lon="5.63721">
        <ele>388.029296875</ele>
        <time>2017-01-01T11:22:00Z</time>
      </trkpt>
      <trkpt lat="49.51881" lon="5.63704">
        <ele>388.99060058594</ele>
        <time>2017-01-01T11:22:03Z</time>
      </trkpt>
      <trkpt lat="49.5188" lon="5.63694">
        <ele>388.51000976562</ele>
        <time>2017-01-01T11:22:06Z</time>
      </trkpt>
      <trkpt lat="49.51882" lon="5.63682">
        <ele>387.54858398438</ele>
        <time>2017-01-01T11:22:09Z</time>
      </trkpt>
      <trkpt lat="49.51888" lon="5.63661">
        <ele>387.06799316406</ele>
        <time>2017-01-01T11:22:14Z</time>
      </trkpt>
      <trkpt lat="49.51897" lon="5.63615">
        <ele>387.54858398438</ele>
        <time>2017-01-01T11:22:27Z</time>
      </trkpt>
      <trkpt lat="49.51901" lon="5.63598">
        <ele>386.58740234375</ele>
        <time>2017-01-01T11:22:31Z</time>
      </trkpt>
      <trkpt lat="49.51893" lon="5.6357">
        <ele>386.10668945312</ele>
        <time>2017-01-01T11:22:38Z</time>
      </trkpt>
      <trkpt lat="49.51884" lon="5.63553">
        <ele>382.74206542969</ele>
        <time>2017-01-01T11:22:43Z</time>
      </trkpt>
      <trkpt lat="49.51878" lon="5.63536">
        <ele>381.30004882812</ele>
        <time>2017-01-01T11:22:51Z</time>
      </trkpt>
      <trkpt lat="49.51881" lon="5.63521">
        <ele>383.22265625</ele>
        <time>2017-01-01T11:23:03Z</time>
      </trkpt>
      <trkpt lat="49.51881" lon="5.63518">
        <ele>382.74206542969</ele>
        <time>2017-01-01T11:23:05Z</time>
      </trkpt>
      <trkpt lat="49.51887" lon="5.63504">
        <ele>381.30004882812</ele>
        <time>2017-01-01T11:23:10Z</time>
      </trkpt>
      <trkpt lat="49.51883" lon="5.63489">
        <ele>380.33874511719</ele>
        <time>2017-01-01T11:23:15Z</time>
      </trkpt>
      <trkpt lat="49.51883" lon="5.63482">
        <ele>379.85803222656</ele>
        <time>2017-01-01T11:23:18Z</time>
      </trkpt>
      <trkpt lat="49.51885" lon="5.63471">
        <ele>378.89685058594</ele>
        <time>2017-01-01T11:23:21Z</time>
      </trkpt>
      <trkpt lat="49.51891" lon="5.63452">
        <ele>376.49353027344</ele>
        <time>2017-01-01T11:23:27Z</time>
      </trkpt>
      <trkpt lat="49.51895" lon="5.63444">
        <ele>377.45483398438</ele>
        <time>2017-01-01T11:23:32Z</time>
      </trkpt>
      <trkpt lat="49.51904" lon="5.63423">
        <ele>374.57080078125</ele>
        <time>2017-01-01T11:23:40Z</time>
      </trkpt>
      <trkpt lat="49.51902" lon="5.63412">
        <ele>373.12890625</ele>
        <time>2017-01-01T11:23:44Z</time>
      </trkpt>
      <trkpt lat="49.51873" lon="5.63366">
        <ele>375.05151367188</ele>
        <time>2017-01-01T11:23:57Z</time>
      </trkpt>
      <trkpt lat="49.5187" lon="5.63362">
        <ele>375.05151367188</ele>
        <time>2017-01-01T11:23:58Z</time>
      </trkpt>
      <trkpt lat="49.51868" lon="5.6332">
        <ele>372.64819335938</ele>
        <time>2017-01-01T11:24:04Z</time>
      </trkpt>
      <trkpt lat="49.51859" lon="5.63298">
        <ele>372.64819335938</ele>
        <time>2017-01-01T11:24:08Z</time>
      </trkpt>
      <trkpt lat="49.5186" lon="5.63277">
        <ele>371.68688964844</ele>
        <time>2017-01-01T11:24:15Z</time>
      </trkpt>
      <trkpt lat="49.51868" lon="5.63274">
        <ele>371.68688964844</ele>
        <time>2017-01-01T11:24:21Z</time>
      </trkpt>
      <trkpt lat="49.51891" lon="5.63274">
        <ele>368.322265625</ele>
        <time>2017-01-01T11:24:31Z</time>
      </trkpt>
      <trkpt lat="49.51917" lon="5.63279">
        <ele>369.28369140625</ele>
        <time>2017-01-01T11:24:42Z</time>
      </trkpt>
      <trkpt lat="49.51926" lon="5.63279">
        <ele>367.84155273438</ele>
        <time>2017-01-01T11:24:46Z</time>
      </trkpt>
      <trkpt lat="49.51951" lon="5.63278">
        <ele>367.84155273438</ele>
        <time>2017-01-01T11:24:57Z</time>
      </trkpt>
      <trkpt lat="49.51979" lon="5.63272">
        <ele>367.36096191406</ele>
        <time>2017-01-01T11:25:07Z</time>
      </trkpt>
      <trkpt lat="49.52" lon="5.63267">
        <ele>366.88024902344</ele>
        <time>2017-01-01T11:25:14Z</time>
      </trkpt>
      <trkpt lat="49.52038" lon="5.63265">
        <ele>367.36096191406</ele>
        <time>2017-01-01T11:25:25Z</time>
      </trkpt>
      <trkpt lat="49.5207" lon="5.63238">
        <ele>371.20629882812</ele>
        <time>2017-01-01T11:25:36Z</time>
      </trkpt>
      <trkpt lat="49.52097" lon="5.63216">
        <ele>373.12890625</ele>
        <time>2017-01-01T11:25:46Z</time>
      </trkpt>
      <trkpt lat="49.521" lon="5.63211">
        <ele>372.64819335938</ele>
        <time>2017-01-01T11:25:48Z</time>
      </trkpt>
      <trkpt lat="49.52098" lon="5.63186">
        <ele>371.20629882812</ele>
        <time>2017-01-01T11:25:56Z</time>
      </trkpt>
      <trkpt lat="49.5208" lon="5.63156">
        <ele>374.57080078125</ele>
        <time>2017-01-01T11:26:09Z</time>
      </trkpt>
      <trkpt lat="49.52079" lon="5.63153">
        <ele>376.01281738281</ele>
        <time>2017-01-01T11:26:11Z</time>
      </trkpt>
      <trkpt lat="49.52079" lon="5.63137">
        <ele>379.37744140625</ele>
        <time>2017-01-01T11:26:18Z</time>
      </trkpt>
      <trkpt lat="49.52067" lon="5.63107">
        <ele>376.97424316406</ele>
        <time>2017-01-01T11:26:31Z</time>
      </trkpt>
      <trkpt lat="49.52061" lon="5.63089">
        <ele>377.45483398438</ele>
        <time>2017-01-01T11:26:38Z</time>
      </trkpt>
      <trkpt lat="49.5206" lon="5.63078">
        <ele>376.97424316406</ele>
        <time>2017-01-01T11:26:42Z</time>
      </trkpt>
      <trkpt lat="49.52057" lon="5.63067">
        <ele>378.89685058594</ele>
        <time>2017-01-01T11:26:46Z</time>
      </trkpt>
      <trkpt lat="49.52054" lon="5.63059">
        <ele>378.41613769531</ele>
        <time>2017-01-01T11:26:50Z</time>
      </trkpt>
      <trkpt lat="49.52051" lon="5.63048">
        <ele>381.78063964844</ele>
        <time>2017-01-01T11:26:56Z</time>
      </trkpt>
      <trkpt lat="49.52051" lon="5.6304">
        <ele>382.74206542969</ele>
        <time>2017-01-01T11:26:59Z</time>
      </trkpt>
      <trkpt lat="49.52052" lon="5.63031">
        <ele>383.70324707031</ele>
        <time>2017-01-01T11:27:03Z</time>
      </trkpt>
      <trkpt lat="49.52052" lon="5.63019">
        <ele>382.74206542969</ele>
        <time>2017-01-01T11:27:08Z</time>
      </trkpt>
      <trkpt lat="49.52059" lon="5.63001">
        <ele>381.78063964844</ele>
        <time>2017-01-01T11:27:17Z</time>
      </trkpt>
      <trkpt lat="49.5207" lon="5.63003">
        <ele>381.30004882812</ele>
        <time>2017-01-01T11:27:23Z</time>
      </trkpt>
      <trkpt lat="49.52096" lon="5.63028">
        <ele>377.93542480469</ele>
        <time>2017-01-01T11:27:34Z</time>
      </trkpt>
      <trkpt lat="49.52109" lon="5.63047">
        <ele>376.49353027344</ele>
        <time>2017-01-01T11:27:38Z</time>
      </trkpt>
      <trkpt lat="49.52124" lon="5.63042">
        <ele>376.97424316406</ele>
        <time>2017-01-01T11:27:43Z</time>
      </trkpt>
      <trkpt lat="49.52134" lon="5.63046">
        <ele>376.97424316406</ele>
        <time>2017-01-01T11:27:47Z</time>
      </trkpt>
      <trkpt lat="49.52161" lon="5.63066">
        <ele>375.53210449219</ele>
        <time>2017-01-01T11:27:54Z</time>
      </trkpt>
      <trkpt lat="49.52191" lon="5.63086">
        <ele>374.57080078125</ele>
        <time>2017-01-01T11:27:59Z</time>
      </trkpt>
      <trkpt lat="49.52205" lon="5.63096">
        <ele>372.64819335938</ele>
        <time>2017-01-01T11:28:01Z</time>
      </trkpt>
      <trkpt lat="49.52218" lon="5.63089">
        <ele>369.76428222656</ele>
        <time>2017-01-01T11:28:05Z</time>
      </trkpt>
      <trkpt lat="49.52235" lon="5.63056">
        <ele>365.9189453125</ele>
        <time>2017-01-01T11:28:17Z</time>
      </trkpt>
      <trkpt lat="49.52242" lon="5.6303">
        <ele>366.88024902344</ele>
        <time>2017-01-01T11:28:25Z</time>
      </trkpt>
      <trkpt lat="49.52245" lon="5.63014">
        <ele>368.322265625</ele>
        <time>2017-01-01T11:28:30Z</time>
      </trkpt>
      <trkpt lat="49.52259" lon="5.62973">
        <ele>372.64819335938</ele>
        <time>2017-01-01T11:28:41Z</time>
      </trkpt>
      <trkpt lat="49.52276" lon="5.62921">
        <ele>374.57080078125</ele>
        <time>2017-01-01T11:28:53Z</time>
      </trkpt>
      <trkpt lat="49.52289" lon="5.62874">
        <ele>373.60949707031</ele>
        <time>2017-01-01T11:29:04Z</time>
      </trkpt>
      <trkpt lat="49.52302" lon="5.62839">
        <ele>370.24487304688</ele>
        <time>2017-01-01T11:29:13Z</time>
      </trkpt>
      <trkpt lat="49.52304" lon="5.62829">
        <ele>369.76428222656</ele>
        <time>2017-01-01T11:29:16Z</time>
      </trkpt>
      <trkpt lat="49.52296" lon="5.62794">
        <ele>372.16748046875</ele>
        <time>2017-01-01T11:29:29Z</time>
      </trkpt>
      <trkpt lat="49.52281" lon="5.62791">
        <ele>371.68688964844</ele>
        <time>2017-01-01T11:29:38Z</time>
      </trkpt>
      <trkpt lat="49.52234" lon="5.62794">
        <ele>370.24487304688</ele>
        <time>2017-01-01T11:29:57Z</time>
      </trkpt>
      <trkpt lat="49.52171" lon="5.62789">
        <ele>373.12890625</ele>
        <time>2017-01-01T11:30:21Z</time>
      </trkpt>
      <trkpt lat="49.52108" lon="5.62765">
        <ele>376.01281738281</ele>
        <time>2017-01-01T11:30:46Z</time>
      </trkpt>
      <trkpt lat="49.52069" lon="5.62778">
        <ele>376.49353027344</ele>
        <time>2017-01-01T11:31:00Z</time>
      </trkpt>
      <trkpt lat="49.52009" lon="5.62871">
        <ele>377.45483398438</ele>
        <time>2017-01-01T11:31:18Z</time>
      </trkpt>
      <trkpt lat="49.51927" lon="5.62953">
        <ele>378.41613769531</ele>
        <time>2017-01-01T11:31:38Z</time>
      </trkpt>
      <trkpt lat="49.51818" lon="5.63022">
        <ele>375.53210449219</ele>
        <time>2017-01-01T11:31:58Z</time>
      </trkpt>
      <trkpt lat="49.51739" lon="5.63048">
        <ele>376.97424316406</ele>
        <time>2017-01-01T11:32:12Z</time>
      </trkpt>
      <trkpt lat="49.51716" lon="5.63077">
        <ele>377.45483398438</ele>
        <time>2017-01-01T11:32:18Z</time>
      </trkpt>
      <trkpt lat="49.5167" lon="5.63238">
        <ele>373.12890625</ele>
        <time>2017-01-01T11:32:35Z</time>
      </trkpt>
      <trkpt lat="49.51622" lon="5.63411">
        <ele>374.09008789062</ele>
        <time>2017-01-01T11:32:55Z</time>
      </trkpt>
      <trkpt lat="49.51593" lon="5.63519">
        <ele>376.01281738281</ele>
        <time>2017-01-01T11:33:11Z</time>
      </trkpt>
      <trkpt lat="49.51592" lon="5.63631">
        <ele>383.22265625</ele>
        <time>2017-01-01T11:33:31Z</time>
      </trkpt>
      <trkpt lat="49.51601" lon="5.63733">
        <ele>387.06799316406</ele>
        <time>2017-01-01T11:33:52Z</time>
      </trkpt>
      <trkpt lat="49.51611" lon="5.63836">
        <ele>389.95190429688</ele>
        <time>2017-01-01T11:34:13Z</time>
      </trkpt>
      <trkpt lat="49.51624" lon="5.63994">
        <ele>388.029296875</ele>
        <time>2017-01-01T11:34:35Z</time>
      </trkpt>
      <trkpt lat="49.51631" lon="5.64084">
        <ele>386.10668945312</ele>
        <time>2017-01-01T11:34:46Z</time>
      </trkpt>
      <trkpt lat="49.51617" lon="5.64123">
        <ele>386.10668945312</ele>
        <time>2017-01-01T11:34:52Z</time>
      </trkpt>
      <trkpt lat="49.5158" lon="5.64123">
        <ele>389.47119140625</ele>
        <time>2017-01-01T11:35:02Z</time>
      </trkpt>
      <trkpt lat="49.5153" lon="5.6412">
        <ele>392.35534667969</ele>
        <time>2017-01-01T11:35:14Z</time>
      </trkpt>
      <trkpt lat="49.51499" lon="5.6411">
        <ele>393.79724121094</ele>
        <time>2017-01-01T11:35:23Z</time>
      </trkpt>
      <trkpt lat="49.51495" lon="5.64122">
        <ele>393.31652832031</ele>
        <time>2017-01-01T11:35:27Z</time>
      </trkpt>
      <trkpt lat="49.51511" lon="5.6425">
        <ele>393.31652832031</ele>
        <time>2017-01-01T11:35:50Z</time>
      </trkpt>
      <trkpt lat="49.51528" lon="5.64422">
        <ele>389.95190429688</ele>
        <time>2017-01-01T11:36:13Z</time>
      </trkpt>
      <trkpt lat="49.51549" lon="5.64581">
        <ele>388.029296875</ele>
        <time>2017-01-01T11:36:34Z</time>
      </trkpt>
      <trkpt lat="49.51559" lon="5.64658">
        <ele>389.47119140625</ele>
        <time>2017-01-01T11:36:47Z</time>
      </trkpt>
      <trkpt lat="49.51567" lon="5.64679">
        <ele>389.47119140625</ele>
        <time>2017-01-01T11:36:54Z</time>
      </trkpt>
      <trkpt lat="49.51565" lon="5.64703">
        <ele>390.4326171875</ele>
        <time>2017-01-01T11:37:00Z</time>
      </trkpt>
      <trkpt lat="49.51554" lon="5.64717">
        <ele>389.47119140625</ele>
        <time>2017-01-01T11:37:05Z</time>
      </trkpt>
      <trkpt lat="49.51546" lon="5.6473">
        <ele>389.95190429688</ele>
        <time>2017-01-01T11:37:09Z</time>
      </trkpt>
      <trkpt lat="49.51544" lon="5.64741">
        <ele>389.95190429688</ele>
        <time>2017-01-01T11:37:11Z</time>
      </trkpt>
      <trkpt lat="49.51537" lon="5.64758">
        <ele>390.91320800781</ele>
        <time>2017-01-01T11:37:15Z</time>
      </trkpt>
      <trkpt lat="49.51535" lon="5.64782">
        <ele>393.79724121094</ele>
        <time>2017-01-01T11:37:22Z</time>
      </trkpt>
      <trkpt lat="49.51544" lon="5.64801">
        <ele>394.27795410156</ele>
        <time>2017-01-01T11:37:29Z</time>
      </trkpt>
      <trkpt lat="49.51565" lon="5.64846">
        <ele>390.91320800781</ele>
        <time>2017-01-01T11:37:41Z</time>
      </trkpt>
      <trkpt lat="49.51585" lon="5.64879">
        <ele>390.4326171875</ele>
        <time>2017-01-01T11:37:51Z</time>
      </trkpt>
      <trkpt lat="49.51605" lon="5.64921">
        <ele>388.99060058594</ele>
        <time>2017-01-01T11:38:00Z</time>
      </trkpt>
      <trkpt lat="49.51622" lon="5.6496">
        <ele>388.51000976562</ele>
        <time>2017-01-01T11:38:08Z</time>
      </trkpt>
      <trkpt lat="49.51647" lon="5.6501">
        <ele>388.029296875</ele>
        <time>2017-01-01T11:38:19Z</time>
      </trkpt>
      <trkpt lat="49.51666" lon="5.65051">
        <ele>388.51000976562</ele>
        <time>2017-01-01T11:38:29Z</time>
      </trkpt>
      <trkpt lat="49.51684" lon="5.6509">
        <ele>386.58740234375</ele>
        <time>2017-01-01T11:38:38Z</time>
      </trkpt>
      <trkpt lat="49.51723" lon="5.65162">
        <ele>383.70324707031</ele>
        <time>2017-01-01T11:38:51Z</time>
      </trkpt>
      <trkpt lat="49.51764" lon="5.65231">
        <ele>380.33874511719</ele>
        <time>2017-01-01T11:39:03Z</time>
      </trkpt>
      <trkpt lat="49.51772" lon="5.65244">
        <ele>379.85803222656</ele>
        <time>2017-01-01T11:39:05Z</time>
      </trkpt>
      <trkpt lat="49.51784" lon="5.65262">
        <ele>379.85803222656</ele>
        <time>2017-01-01T11:39:09Z</time>
      </trkpt>
      <trkpt lat="49.51814" lon="5.65321">
        <ele>382.26135253906</ele>
        <time>2017-01-01T11:39:19Z</time>
      </trkpt>
      <trkpt lat="49.51829" lon="5.65358">
        <ele>387.54858398438</ele>
        <time>2017-01-01T11:39:28Z</time>
      </trkpt>
      <trkpt lat="49.51844" lon="5.6538">
        <ele>388.51000976562</ele>
        <time>2017-01-01T11:39:36Z</time>
      </trkpt>
      <trkpt lat="49.51846" lon="5.65389">
        <ele>388.029296875</ele>
        <time>2017-01-01T11:39:39Z</time>
      </trkpt>
      <trkpt lat="49.51851" lon="5.65402">
        <ele>388.029296875</ele>
        <time>2017-01-01T11:39:44Z</time>
      </trkpt>
      <trkpt lat="49.51865" lon="5.65426">
        <ele>390.91320800781</ele>
        <time>2017-01-01T11:39:52Z</time>
      </trkpt>
      <trkpt lat="49.51867" lon="5.65438">
        <ele>391.39379882812</ele>
        <time>2017-01-01T11:39:57Z</time>
      </trkpt>
      <trkpt lat="49.51867" lon="5.65446">
        <ele>391.39379882812</ele>
        <time>2017-01-01T11:40:00Z</time>
      </trkpt>
      <trkpt lat="49.51878" lon="5.65477">
        <ele>388.029296875</ele>
        <time>2017-01-01T11:40:07Z</time>
      </trkpt>
      <trkpt lat="49.51875" lon="5.65493">
        <ele>388.99060058594</ele>
        <time>2017-01-01T11:40:12Z</time>
      </trkpt>
      <trkpt lat="49.5187" lon="5.65505">
        <ele>390.4326171875</ele>
        <time>2017-01-01T11:40:16Z</time>
      </trkpt>
      <trkpt lat="49.51866" lon="5.65514">
        <ele>391.39379882812</ele>
        <time>2017-01-01T11:40:19Z</time>
      </trkpt>
      <trkpt lat="49.51843" lon="5.65548">
        <ele>392.35534667969</ele>
        <time>2017-01-01T11:40:29Z</time>
      </trkpt>
      <trkpt lat="49.51825" lon="5.656">
        <ele>393.79724121094</ele>
        <time>2017-01-01T11:40:40Z</time>
      </trkpt>
      <trkpt lat="49.5182" lon="5.65604">
        <ele>393.79724121094</ele>
        <time>2017-01-01T11:40:41Z</time>
      </trkpt>
      <trkpt lat="49.51808" lon="5.65625">
        <ele>393.31652832031</ele>
        <time>2017-01-01T11:40:48Z</time>
      </trkpt>
      <trkpt lat="49.51803" lon="5.6565">
        <ele>392.35534667969</ele>
        <time>2017-01-01T11:40:56Z</time>
      </trkpt>
      <trkpt lat="49.51798" lon="5.65696">
        <ele>389.95190429688</ele>
        <time>2017-01-01T11:41:07Z</time>
      </trkpt>
      <trkpt lat="49.51795" lon="5.65742">
        <ele>390.91320800781</ele>
        <time>2017-01-01T11:41:17Z</time>
      </trkpt>
      <trkpt lat="49.518" lon="5.65793">
        <ele>388.51000976562</ele>
        <time>2017-01-01T11:41:30Z</time>
      </trkpt>
      <trkpt lat="49.51809" lon="5.65828">
        <ele>389.47119140625</ele>
        <time>2017-01-01T11:41:39Z</time>
      </trkpt>
      <trkpt lat="49.51814" lon="5.65849">
        <ele>385.6259765625</ele>
        <time>2017-01-01T11:41:44Z</time>
      </trkpt>
      <trkpt lat="49.51814" lon="5.65868">
        <ele>384.66479492188</ele>
        <time>2017-01-01T11:41:49Z</time>
      </trkpt>
      <trkpt lat="49.51811" lon="5.65902">
        <ele>385.14538574219</ele>
        <time>2017-01-01T11:41:58Z</time>
      </trkpt>
      <trkpt lat="49.51812" lon="5.65932">
        <ele>384.18408203125</ele>
        <time>2017-01-01T11:42:04Z</time>
      </trkpt>
      <trkpt lat="49.5181" lon="5.65977">
        <ele>384.66479492188</ele>
        <time>2017-01-01T11:42:16Z</time>
      </trkpt>
      <trkpt lat="49.51791" lon="5.66014">
        <ele>384.18408203125</ele>
        <time>2017-01-01T11:42:29Z</time>
      </trkpt>
      <trkpt lat="49.51789" lon="5.66037">
        <ele>385.14538574219</ele>
        <time>2017-01-01T11:42:36Z</time>
      </trkpt>
      <trkpt lat="49.51786" lon="5.66052">
        <ele>384.66479492188</ele>
        <time>2017-01-01T11:42:41Z</time>
      </trkpt>
      <trkpt lat="49.51783" lon="5.66057">
        <ele>385.14538574219</ele>
        <time>2017-01-01T11:42:43Z</time>
      </trkpt>
      <trkpt lat="49.5178" lon="5.66066">
        <ele>386.58740234375</ele>
        <time>2017-01-01T11:42:46Z</time>
      </trkpt>
      <trkpt lat="49.51779" lon="5.66076">
        <ele>386.10668945312</ele>
        <time>2017-01-01T11:42:49Z</time>
      </trkpt>
      <trkpt lat="49.51771" lon="5.66096">
        <ele>387.06799316406</ele>
        <time>2017-01-01T11:42:58Z</time>
      </trkpt>
      <trkpt lat="49.51761" lon="5.66101">
        <ele>386.10668945312</ele>
        <time>2017-01-01T11:43:04Z</time>
      </trkpt>
      <trkpt lat="49.51758" lon="5.66116">
        <ele>387.54858398438</ele>
        <time>2017-01-01T11:43:09Z</time>
      </trkpt>
      <trkpt lat="49.51746" lon="5.66158">
        <ele>383.70324707031</ele>
        <time>2017-01-01T11:43:21Z</time>
      </trkpt>
      <trkpt lat="49.5173" lon="5.66197">
        <ele>381.78063964844</ele>
        <time>2017-01-01T11:43:34Z</time>
      </trkpt>
      <trkpt lat="49.51725" lon="5.66202">
        <ele>382.26135253906</ele>
        <time>2017-01-01T11:43:47Z</time>
      </trkpt>
      <trkpt lat="49.51724" lon="5.66203">
        <ele>382.26135253906</ele>
        <time>2017-01-01T11:43:49Z</time>
      </trkpt>
      <trkpt lat="49.51716" lon="5.66211">
        <ele>380.33874511719</ele>
        <time>2017-01-01T11:43:57Z</time>
      </trkpt>
      <trkpt lat="49.51712" lon="5.66219">
        <ele>378.41613769531</ele>
        <time>2017-01-01T11:44:00Z</time>
      </trkpt>
      <trkpt lat="49.5171" lon="5.66235">
        <ele>378.41613769531</ele>
        <time>2017-01-01T11:44:05Z</time>
      </trkpt>
      <trkpt lat="49.51715" lon="5.66247">
        <ele>377.93542480469</ele>
        <time>2017-01-01T11:44:09Z</time>
      </trkpt>
      <trkpt lat="49.51717" lon="5.66254">
        <ele>377.93542480469</ele>
        <time>2017-01-01T11:44:11Z</time>
      </trkpt>
      <trkpt lat="49.51721" lon="5.66274">
        <ele>376.97424316406</ele>
        <time>2017-01-01T11:44:17Z</time>
      </trkpt>
      <trkpt lat="49.51725" lon="5.66286">
        <ele>375.53210449219</ele>
        <time>2017-01-01T11:44:20Z</time>
      </trkpt>
      <trkpt lat="49.51749" lon="5.66317">
        <ele>374.09008789062</ele>
        <time>2017-01-01T11:44:30Z</time>
      </trkpt>
      <trkpt lat="49.51767" lon="5.6633">
        <ele>375.05151367188</ele>
        <time>2017-01-01T11:44:35Z</time>
      </trkpt>
      <trkpt lat="49.51779" lon="5.66342">
        <ele>375.05151367188</ele>
        <time>2017-01-01T11:44:39Z</time>
      </trkpt>
      <trkpt lat="49.51784" lon="5.66351">
        <ele>376.01281738281</ele>
        <time>2017-01-01T11:44:41Z</time>
      </trkpt>
      <trkpt lat="49.51802" lon="5.66375">
        <ele>377.45483398438</ele>
        <time>2017-01-01T11:44:48Z</time>
      </trkpt>
      <trkpt lat="49.51809" lon="5.66391">
        <ele>377.45483398438</ele>
        <time>2017-01-01T11:44:53Z</time>
      </trkpt>
      <trkpt lat="49.5184" lon="5.66423">
        <ele>377.93542480469</ele>
        <time>2017-01-01T11:45:04Z</time>
      </trkpt>
      <trkpt lat="49.51842" lon="5.66426">
        <ele>377.93542480469</ele>
        <time>2017-01-01T11:45:05Z</time>
      </trkpt>
      <trkpt lat="49.5186" lon="5.66454">
        <ele>379.85803222656</ele>
        <time>2017-01-01T11:45:14Z</time>
      </trkpt>
      <trkpt lat="49.51867" lon="5.66466">
        <ele>380.81945800781</ele>
        <time>2017-01-01T11:45:20Z</time>
      </trkpt>
      <trkpt lat="49.51886" lon="5.665">
        <ele>378.41613769531</ele>
        <time>2017-01-01T11:45:31Z</time>
      </trkpt>
      <trkpt lat="49.51891" lon="5.66522">
        <ele>379.37744140625</ele>
        <time>2017-01-01T11:45:35Z</time>
      </trkpt>
      <trkpt lat="49.51899" lon="5.66534">
        <ele>380.33874511719</ele>
        <time>2017-01-01T11:45:39Z</time>
      </trkpt>
      <trkpt lat="49.51899" lon="5.66561">
        <ele>381.30004882812</ele>
        <time>2017-01-01T11:45:47Z</time>
      </trkpt>
      <trkpt lat="49.519" lon="5.66563">
        <ele>381.30004882812</ele>
        <time>2017-01-01T11:45:48Z</time>
      </trkpt>
      <trkpt lat="49.51925" lon="5.66599">
        <ele>378.89685058594</ele>
        <time>2017-01-01T11:45:59Z</time>
      </trkpt>
      <trkpt lat="49.51937" lon="5.66624">
        <ele>376.49353027344</ele>
        <time>2017-01-01T11:46:06Z</time>
      </trkpt>
      <trkpt lat="49.51954" lon="5.66676">
        <ele>375.05151367188</ele>
        <time>2017-01-01T11:46:17Z</time>
      </trkpt>
      <trkpt lat="49.5197" lon="5.66717">
        <ele>376.49353027344</ele>
        <time>2017-01-01T11:46:26Z</time>
      </trkpt>
      <trkpt lat="49.51984" lon="5.66754">
        <ele>378.41613769531</ele>
        <time>2017-01-01T11:46:35Z</time>
      </trkpt>
      <trkpt lat="49.51985" lon="5.66757">
        <ele>378.89685058594</ele>
        <time>2017-01-01T11:46:36Z</time>
      </trkpt>
      <trkpt lat="49.51986" lon="5.66763">
        <ele>379.85803222656</ele>
        <time>2017-01-01T11:46:38Z</time>
      </trkpt>
      <trkpt lat="49.52003" lon="5.66815">
        <ele>373.60949707031</ele>
        <time>2017-01-01T11:46:48Z</time>
      </trkpt>
      <trkpt lat="49.51996" lon="5.66832">
        <ele>373.60949707031</ele>
        <time>2017-01-01T11:46:52Z</time>
      </trkpt>
      <trkpt lat="49.51989" lon="5.66841">
        <ele>376.01281738281</ele>
        <time>2017-01-01T11:46:56Z</time>
      </trkpt>
      <trkpt lat="49.51961" lon="5.66872">
        <ele>384.18408203125</ele>
        <time>2017-01-01T11:47:08Z</time>
      </trkpt>
      <trkpt lat="49.51937" lon="5.66888">
        <ele>388.029296875</ele>
        <time>2017-01-01T11:47:18Z</time>
      </trkpt>
      <trkpt lat="49.51913" lon="5.66905">
        <ele>385.14538574219</ele>
        <time>2017-01-01T11:47:31Z</time>
      </trkpt>
      <trkpt lat="49.51908" lon="5.66912">
        <ele>385.14538574219</ele>
        <time>2017-01-01T11:47:34Z</time>
      </trkpt>
      <trkpt lat="49.51901" lon="5.66922">
        <ele>385.6259765625</ele>
        <time>2017-01-01T11:47:38Z</time>
      </trkpt>
      <trkpt lat="49.5187" lon="5.66913">
        <ele>385.14538574219</ele>
        <time>2017-01-01T11:47:48Z</time>
      </trkpt>
      <trkpt lat="49.51847" lon="5.66892">
        <ele>385.6259765625</ele>
        <time>2017-01-01T11:47:57Z</time>
      </trkpt>
      <trkpt lat="49.51817" lon="5.66856">
        <ele>385.6259765625</ele>
        <time>2017-01-01T11:48:12Z</time>
      </trkpt>
      <trkpt lat="49.5181" lon="5.66848">
        <ele>383.22265625</ele>
        <time>2017-01-01T11:48:16Z</time>
      </trkpt>
      <trkpt lat="49.51785" lon="5.6682">
        <ele>381.30004882812</ele>
        <time>2017-01-01T11:48:29Z</time>
      </trkpt>
      <trkpt lat="49.51764" lon="5.66792">
        <ele>381.30004882812</ele>
        <time>2017-01-01T11:48:42Z</time>
      </trkpt>
      <trkpt lat="49.51757" lon="5.66784">
        <ele>382.74206542969</ele>
        <time>2017-01-01T11:48:47Z</time>
      </trkpt>
      <trkpt lat="49.51754" lon="5.66778">
        <ele>381.78063964844</ele>
        <time>2017-01-01T11:48:50Z</time>
      </trkpt>
      <trkpt lat="49.51737" lon="5.66754">
        <ele>381.30004882812</ele>
        <time>2017-01-01T11:49:00Z</time>
      </trkpt>
      <trkpt lat="49.51729" lon="5.6673">
        <ele>382.74206542969</ele>
        <time>2017-01-01T11:49:07Z</time>
      </trkpt>
      <trkpt lat="49.51728" lon="5.66719">
        <ele>383.70324707031</ele>
        <time>2017-01-01T11:49:11Z</time>
      </trkpt>
      <trkpt lat="49.51724" lon="5.66707">
        <ele>383.70324707031</ele>
        <time>2017-01-01T11:49:16Z</time>
      </trkpt>
      <trkpt lat="49.51696" lon="5.66725">
        <ele>387.06799316406</ele>
        <time>2017-01-01T11:49:29Z</time>
      </trkpt>
      <trkpt lat="49.51675" lon="5.66748">
        <ele>387.06799316406</ele>
        <time>2017-01-01T11:49:41Z</time>
      </trkpt>
      <trkpt lat="49.51657" lon="5.66772">
        <ele>387.54858398438</ele>
        <time>2017-01-01T11:49:50Z</time>
      </trkpt>
      <trkpt lat="49.51655" lon="5.6678">
        <ele>386.58740234375</ele>
        <time>2017-01-01T11:49:54Z</time>
      </trkpt>
      <trkpt lat="49.51628" lon="5.66828">
        <ele>384.18408203125</ele>
        <time>2017-01-01T11:50:06Z</time>
      </trkpt>
      <trkpt lat="49.51611" lon="5.66856">
        <ele>384.18408203125</ele>
        <time>2017-01-01T11:50:14Z</time>
      </trkpt>
      <trkpt lat="49.51589" lon="5.66865">
        <ele>382.26135253906</ele>
        <time>2017-01-01T11:50:23Z</time>
      </trkpt>
      <trkpt lat="49.51558" lon="5.66871">
        <ele>379.37744140625</ele>
        <time>2017-01-01T11:50:33Z</time>
      </trkpt>
      <trkpt lat="49.51528" lon="5.66872">
        <ele>385.14538574219</ele>
        <time>2017-01-01T11:50:45Z</time>
      </trkpt>
      <trkpt lat="49.51491" lon="5.66864">
        <ele>384.66479492188</ele>
        <time>2017-01-01T11:50:57Z</time>
      </trkpt>
      <trkpt lat="49.51464" lon="5.66864">
        <ele>385.14538574219</ele>
        <time>2017-01-01T11:51:06Z</time>
      </trkpt>
      <trkpt lat="49.51419" lon="5.66881">
        <ele>382.26135253906</ele>
        <time>2017-01-01T11:51:18Z</time>
      </trkpt>
      <trkpt lat="49.51398" lon="5.66888">
        <ele>382.26135253906</ele>
        <time>2017-01-01T11:51:24Z</time>
      </trkpt>
      <trkpt lat="49.5139" lon="5.66894">
        <ele>386.10668945312</ele>
        <time>2017-01-01T11:51:28Z</time>
      </trkpt>
      <trkpt lat="49.5136" lon="5.66906">
        <ele>388.51000976562</ele>
        <time>2017-01-01T11:51:38Z</time>
      </trkpt>
      <trkpt lat="49.51328" lon="5.66929">
        <ele>383.22265625</ele>
        <time>2017-01-01T11:51:46Z</time>
      </trkpt>
      <trkpt lat="49.51291" lon="5.66957">
        <ele>378.89685058594</ele>
        <time>2017-01-01T11:51:58Z</time>
      </trkpt>
      <trkpt lat="49.51289" lon="5.66958">
        <ele>378.89685058594</ele>
        <time>2017-01-01T11:51:59Z</time>
      </trkpt>
      <trkpt lat="49.51282" lon="5.66963">
        <ele>378.41613769531</ele>
        <time>2017-01-01T11:52:02Z</time>
      </trkpt>
      <trkpt lat="49.51244" lon="5.67">
        <ele>374.57080078125</ele>
        <time>2017-01-01T11:52:12Z</time>
      </trkpt>
      <trkpt lat="49.51223" lon="5.6703">
        <ele>372.64819335938</ele>
        <time>2017-01-01T11:52:19Z</time>
      </trkpt>
      <trkpt lat="49.51205" lon="5.67055">
        <ele>369.76428222656</ele>
        <time>2017-01-01T11:52:27Z</time>
      </trkpt>
      <trkpt lat="49.5118" lon="5.67093">
        <ele>367.36096191406</ele>
        <time>2017-01-01T11:52:38Z</time>
      </trkpt>
      <trkpt lat="49.51166" lon="5.67116">
        <ele>365.9189453125</ele>
        <time>2017-01-01T11:52:43Z</time>
      </trkpt>
      <trkpt lat="49.51136" lon="5.67184">
        <ele>360.63171386719</ele>
        <time>2017-01-01T11:52:54Z</time>
      </trkpt>
      <trkpt lat="49.51058" lon="5.67258">
        <ele>351.01843261719</ele>
        <time>2017-01-01T11:53:08Z</time>
      </trkpt>
      <trkpt lat="49.51046" lon="5.67266">
        <ele>351.01843261719</ele>
        <time>2017-01-01T11:53:10Z</time>
      </trkpt>
      <trkpt lat="49.509" lon="5.6733">
        <ele>345.25061035156</ele>
        <time>2017-01-01T11:53:34Z</time>
      </trkpt>
      <trkpt lat="49.50751" lon="5.67398">
        <ele>342.84729003906</ele>
        <time>2017-01-01T11:54:02Z</time>
      </trkpt>
      <trkpt lat="49.50618" lon="5.67464">
        <ele>340.44409179688</ele>
        <time>2017-01-01T11:54:27Z</time>
      </trkpt>
      <trkpt lat="49.50603" lon="5.67504">
        <ele>339.48266601562</ele>
        <time>2017-01-01T11:54:32Z</time>
      </trkpt>
      <trkpt lat="49.50591" lon="5.67637">
        <ele>343.32788085938</ele>
        <time>2017-01-01T11:54:49Z</time>
      </trkpt>
      <trkpt lat="49.50581" lon="5.67728">
        <ele>345.25061035156</ele>
        <time>2017-01-01T11:55:07Z</time>
      </trkpt>
      <trkpt lat="49.50577" lon="5.6774">
        <ele>345.25061035156</ele>
        <time>2017-01-01T11:55:19Z</time>
      </trkpt>
      <trkpt lat="49.50569" lon="5.67747">
        <ele>345.25061035156</ele>
        <time>2017-01-01T11:55:23Z</time>
      </trkpt>
      <trkpt lat="49.50522" lon="5.67817">
        <ele>344.77001953125</ele>
        <time>2017-01-01T11:55:39Z</time>
      </trkpt>
      <trkpt lat="49.50444" lon="5.67889">
        <ele>342.36669921875</ele>
        <time>2017-01-01T11:55:56Z</time>
      </trkpt>
      <trkpt lat="49.50339" lon="5.67969">
        <ele>341.88598632812</ele>
        <time>2017-01-01T11:56:16Z</time>
      </trkpt>
      <trkpt lat="49.50274" lon="5.68016">
        <ele>344.77001953125</ele>
        <time>2017-01-01T11:56:32Z</time>
      </trkpt>
      <trkpt lat="49.50211" lon="5.68068">
        <ele>346.69262695312</ele>
        <time>2017-01-01T11:56:49Z</time>
      </trkpt>
      <trkpt lat="49.50147" lon="5.68166">
        <ele>346.69262695312</ele>
        <time>2017-01-01T11:57:10Z</time>
      </trkpt>
      <trkpt lat="49.50082" lon="5.68241">
        <ele>347.65393066406</ele>
        <time>2017-01-01T11:57:28Z</time>
      </trkpt>
      <trkpt lat="49.50028" lon="5.68285">
        <ele>346.21203613281</ele>
        <time>2017-01-01T11:57:41Z</time>
      </trkpt>
      <trkpt lat="49.49986" lon="5.68293">
        <ele>343.32788085938</ele>
        <time>2017-01-01T11:57:49Z</time>
      </trkpt>
      <trkpt lat="49.49944" lon="5.68313">
        <ele>341.88598632812</ele>
        <time>2017-01-01T11:57:57Z</time>
      </trkpt>
      <trkpt lat="49.49929" lon="5.68321">
        <ele>342.36669921875</ele>
        <time>2017-01-01T11:58:00Z</time>
      </trkpt>
      <trkpt lat="49.49901" lon="5.68338">
        <ele>340.92468261719</ele>
        <time>2017-01-01T11:58:06Z</time>
      </trkpt>
      <trkpt lat="49.49857" lon="5.6836">
        <ele>342.84729003906</ele>
        <time>2017-01-01T11:58:16Z</time>
      </trkpt>
      <trkpt lat="49.49839" lon="5.68368">
        <ele>341.88598632812</ele>
        <time>2017-01-01T11:58:20Z</time>
      </trkpt>
      <trkpt lat="49.49823" lon="5.68395">
        <ele>342.84729003906</ele>
        <time>2017-01-01T11:58:27Z</time>
      </trkpt>
      <trkpt lat="49.49824" lon="5.684">
        <ele>343.32788085938</ele>
        <time>2017-01-01T11:58:28Z</time>
      </trkpt>
      <trkpt lat="49.4983" lon="5.68466">
        <ele>346.69262695312</ele>
        <time>2017-01-01T11:58:38Z</time>
      </trkpt>
      <trkpt lat="49.49837" lon="5.68504">
        <ele>345.25061035156</ele>
        <time>2017-01-01T11:58:43Z</time>
      </trkpt>
      <trkpt lat="49.49828" lon="5.68527">
        <ele>345.25061035156</ele>
        <time>2017-01-01T11:58:48Z</time>
      </trkpt>
      <trkpt lat="49.49815" lon="5.68536">
        <ele>348.13464355469</ele>
        <time>2017-01-01T11:58:51Z</time>
      </trkpt>
      <trkpt lat="49.49786" lon="5.68568">
        <ele>348.13464355469</ele>
        <time>2017-01-01T11:59:02Z</time>
      </trkpt>
      <trkpt lat="49.49753" lon="5.68603">
        <ele>350.53784179688</ele>
        <time>2017-01-01T11:59:11Z</time>
      </trkpt>
      <trkpt lat="49.49725" lon="5.68625">
        <ele>345.73132324219</ele>
        <time>2017-01-01T11:59:21Z</time>
      </trkpt>
      <trkpt lat="49.49723" lon="5.68626">
        <ele>345.25061035156</ele>
        <time>2017-01-01T11:59:22Z</time>
      </trkpt>
      <trkpt lat="49.49698" lon="5.68653">
        <ele>344.77001953125</ele>
        <time>2017-01-01T11:59:30Z</time>
      </trkpt>
      <trkpt lat="49.49655" lon="5.68671">
        <ele>343.32788085938</ele>
        <time>2017-01-01T11:59:42Z</time>
      </trkpt>
      <trkpt lat="49.49635" lon="5.68701">
        <ele>343.32788085938</ele>
        <time>2017-01-01T11:59:51Z</time>
      </trkpt>
      <trkpt lat="49.49624" lon="5.68748">
        <ele>341.88598632812</ele>
        <time>2017-01-01T12:00:00Z</time>
      </trkpt>
      <trkpt lat="49.49605" lon="5.68766">
        <ele>340.92468261719</ele>
        <time>2017-01-01T12:00:05Z</time>
      </trkpt>
      <trkpt lat="49.4956" lon="5.68807">
        <ele>338.04077148438</ele>
        <time>2017-01-01T12:00:15Z</time>
      </trkpt>
      <trkpt lat="49.49539" lon="5.68831">
        <ele>336.59887695312</ele>
        <time>2017-01-01T12:00:18Z</time>
      </trkpt>
      <trkpt lat="49.4951" lon="5.6888">
        <ele>333.71472167969</ele>
        <time>2017-01-01T12:00:24Z</time>
      </trkpt>
      <trkpt lat="49.49499" lon="5.68922">
        <ele>332.27282714844</ele>
        <time>2017-01-01T12:00:28Z</time>
      </trkpt>
      <trkpt lat="49.49491" lon="5.68954">
        <ele>335.15673828125</ele>
        <time>2017-01-01T12:00:33Z</time>
      </trkpt>
      <trkpt lat="49.49497" lon="5.68981">
        <ele>335.63732910156</ele>
        <time>2017-01-01T12:00:38Z</time>
      </trkpt>
      <trkpt lat="49.49504" lon="5.68986">
        <ele>334.19543457031</ele>
        <time>2017-01-01T12:00:40Z</time>
      </trkpt>
      <trkpt lat="49.49563" lon="5.69051">
        <ele>334.19543457031</ele>
        <time>2017-01-01T12:01:00Z</time>
      </trkpt>
      <trkpt lat="49.49585" lon="5.69083">
        <ele>331.79211425781</ele>
        <time>2017-01-01T12:01:08Z</time>
      </trkpt>
      <trkpt lat="49.49588" lon="5.69123">
        <ele>329.38891601562</ele>
        <time>2017-01-01T12:01:13Z</time>
      </trkpt>
      <trkpt lat="49.49544" lon="5.69275">
        <ele>323.14038085938</ele>
        <time>2017-01-01T12:01:27Z</time>
      </trkpt>
      <trkpt lat="49.4947" lon="5.69471">
        <ele>319.29504394531</ele>
        <time>2017-01-01T12:01:49Z</time>
      </trkpt>
      <trkpt lat="49.49387" lon="5.69642">
        <ele>312.56579589844</ele>
        <time>2017-01-01T12:02:08Z</time>
      </trkpt>
      <trkpt lat="49.49328" lon="5.69767">
        <ele>307.27856445312</ele>
        <time>2017-01-01T12:02:22Z</time>
      </trkpt>
      <trkpt lat="49.49316" lon="5.69786">
        <ele>304.39465332031</ele>
        <time>2017-01-01T12:02:24Z</time>
      </trkpt>
      <trkpt lat="49.49279" lon="5.69818">
        <ele>301.99133300781</ele>
        <time>2017-01-01T12:02:29Z</time>
      </trkpt>
      <trkpt lat="49.49248" lon="5.6983">
        <ele>300.06872558594</ele>
        <time>2017-01-01T12:02:33Z</time>
      </trkpt>
      <trkpt lat="49.49235" lon="5.69835">
        <ele>298.62670898438</ele>
        <time>2017-01-01T12:02:35Z</time>
      </trkpt>
      <trkpt lat="49.49219" lon="5.69854">
        <ele>294.78137207031</ele>
        <time>2017-01-01T12:02:38Z</time>
      </trkpt>
      <trkpt lat="49.49217" lon="5.69888">
        <ele>290.45556640625</ele>
        <time>2017-01-01T12:02:44Z</time>
      </trkpt>
      <trkpt lat="49.49243" lon="5.69902">
        <ele>291.8974609375</ele>
        <time>2017-01-01T12:02:54Z</time>
      </trkpt>
      <trkpt lat="49.49241" lon="5.69924">
        <ele>292.85876464844</ele>
        <time>2017-01-01T12:02:58Z</time>
      </trkpt>
      <trkpt lat="49.49215" lon="5.69973">
        <ele>294.30078125</ele>
        <time>2017-01-01T12:03:11Z</time>
      </trkpt>
      <trkpt lat="49.49193" lon="5.70001">
        <ele>296.22351074219</ele>
        <time>2017-01-01T12:03:20Z</time>
      </trkpt>
      <trkpt lat="49.49179" lon="5.70014">
        <ele>297.18469238281</ele>
        <time>2017-01-01T12:03:27Z</time>
      </trkpt>
      <trkpt lat="49.49155" lon="5.70035">
        <ele>298.14611816406</ele>
        <time>2017-01-01T12:03:39Z</time>
      </trkpt>
      <trkpt lat="49.49126" lon="5.70052">
        <ele>297.18469238281</ele>
        <time>2017-01-01T12:03:51Z</time>
      </trkpt>
      <trkpt lat="49.49094" lon="5.70073">
        <ele>301.51062011719</ele>
        <time>2017-01-01T12:04:03Z</time>
      </trkpt>
      <trkpt lat="49.49068" lon="5.70088">
        <ele>305.83666992188</ele>
        <time>2017-01-01T12:04:12Z</time>
      </trkpt>
      <trkpt lat="49.49064" lon="5.70102">
        <ele>307.75927734375</ele>
        <time>2017-01-01T12:04:17Z</time>
      </trkpt>
      <trkpt lat="49.49056" lon="5.70103">
        <ele>309.201171875</ele>
        <time>2017-01-01T12:04:21Z</time>
      </trkpt>
      <trkpt lat="49.49048" lon="5.70104">
        <ele>308.72045898438</ele>
        <time>2017-01-01T12:04:24Z</time>
      </trkpt>
      <trkpt lat="49.49034" lon="5.70097">
        <ele>304.87524414062</ele>
        <time>2017-01-01T12:04:29Z</time>
      </trkpt>
      <trkpt lat="49.49013" lon="5.70097">
        <ele>303.43322753906</ele>
        <time>2017-01-01T12:04:36Z</time>
      </trkpt>
      <trkpt lat="49.48975" lon="5.70082">
        <ele>299.10729980469</ele>
        <time>2017-01-01T12:04:42Z</time>
      </trkpt>
      <trkpt lat="49.48951" lon="5.70078">
        <ele>298.62670898438</ele>
        <time>2017-01-01T12:04:46Z</time>
      </trkpt>
      <trkpt lat="49.48888" lon="5.70069">
        <ele>301.99133300781</ele>
        <time>2017-01-01T12:05:00Z</time>
      </trkpt>
      <trkpt lat="49.48862" lon="5.7007">
        <ele>302.47192382812</ele>
        <time>2017-01-01T12:05:08Z</time>
      </trkpt>
      <trkpt lat="49.48825" lon="5.70077">
        <ele>302.47192382812</ele>
        <time>2017-01-01T12:05:20Z</time>
      </trkpt>
      <trkpt lat="49.48797" lon="5.70092">
        <ele>299.10729980469</ele>
        <time>2017-01-01T12:05:27Z</time>
      </trkpt>
      <trkpt lat="49.48757" lon="5.70129">
        <ele>295.26196289062</ele>
        <time>2017-01-01T12:05:35Z</time>
      </trkpt>
      <trkpt lat="49.48742" lon="5.70146">
        <ele>293.82006835938</ele>
        <time>2017-01-01T12:05:38Z</time>
      </trkpt>
      <trkpt lat="49.48724" lon="5.7016">
        <ele>293.33935546875</ele>
        <time>2017-01-01T12:05:42Z</time>
      </trkpt>
      <trkpt lat="49.48695" lon="5.70183">
        <ele>289.97485351562</ele>
        <time>2017-01-01T12:05:48Z</time>
      </trkpt>
      <trkpt lat="49.48687" lon="5.70186">
        <ele>289.97485351562</ele>
        <time>2017-01-01T12:05:50Z</time>
      </trkpt>
      <trkpt lat="49.48676" lon="5.70194">
        <ele>289.01354980469</ele>
        <time>2017-01-01T12:05:53Z</time>
      </trkpt>
      <trkpt lat="49.48611" lon="5.70197">
        <ele>284.68762207031</ele>
        <time>2017-01-01T12:06:02Z</time>
      </trkpt>
      <trkpt lat="49.48594" lon="5.70198">
        <ele>283.24560546875</ele>
        <time>2017-01-01T12:06:04Z</time>
      </trkpt>
      <trkpt lat="49.48557" lon="5.70193">
        <ele>276.51635742188</ele>
        <time>2017-01-01T12:06:07Z</time>
      </trkpt>
      <trkpt lat="49.48528" lon="5.70222">
        <ele>267.86450195312</ele>
        <time>2017-01-01T12:06:13Z</time>
      </trkpt>
      <trkpt lat="49.48528" lon="5.70239">
        <ele>264.01928710938</ele>
        <time>2017-01-01T12:06:15Z</time>
      </trkpt>
      <trkpt lat="49.48531" lon="5.70262">
        <ele>260.17395019531</ele>
        <time>2017-01-01T12:06:17Z</time>
      </trkpt>
      <trkpt lat="49.48534" lon="5.7031">
        <ele>252.96398925781</ele>
        <time>2017-01-01T12:06:21Z</time>
      </trkpt>
      <trkpt lat="49.48544" lon="5.70364">
        <ele>246.71545410156</ele>
        <time>2017-01-01T12:06:26Z</time>
      </trkpt>
      <trkpt lat="49.4855" lon="5.70374">
        <ele>245.75415039062</ele>
        <time>2017-01-01T12:06:28Z</time>
      </trkpt>
      <trkpt lat="49.48541" lon="5.70379">
        <ele>241.42822265625</ele>
        <time>2017-01-01T12:06:33Z</time>
      </trkpt>
      <trkpt lat="49.48518" lon="5.70361">
        <ele>239.98620605469</ele>
        <time>2017-01-01T12:06:38Z</time>
      </trkpt>
      <trkpt lat="49.48486" lon="5.70311">
        <ele>237.58288574219</ele>
        <time>2017-01-01T12:06:45Z</time>
      </trkpt>
      <trkpt lat="49.48429" lon="5.70203">
        <ele>237.10229492188</ele>
        <time>2017-01-01T12:07:00Z</time>
      </trkpt>
      <trkpt lat="49.48422" lon="5.70192">
        <ele>236.62170410156</ele>
        <time>2017-01-01T12:07:02Z</time>
      </trkpt>
      <trkpt lat="49.48408" lon="5.70168">
        <ele>237.10229492188</ele>
        <time>2017-01-01T12:07:07Z</time>
      </trkpt>
      <trkpt lat="49.48391" lon="5.70183">
        <ele>237.58288574219</ele>
        <time>2017-01-01T12:07:13Z</time>
      </trkpt>
      <trkpt lat="49.48348" lon="5.70277">
        <ele>237.10229492188</ele>
        <time>2017-01-01T12:07:28Z</time>
      </trkpt>
      <trkpt lat="49.48329" lon="5.70358">
        <ele>239.02490234375</ele>
        <time>2017-01-01T12:07:42Z</time>
      </trkpt>
      <trkpt lat="49.48316" lon="5.70368">
        <ele>239.50549316406</ele>
        <time>2017-01-01T12:07:47Z</time>
      </trkpt>
      <trkpt lat="49.48256" lon="5.70392">
        <ele>243.35083007812</ele>
        <time>2017-01-01T12:08:06Z</time>
      </trkpt>
      <trkpt lat="49.48189" lon="5.70443">
        <ele>246.23486328125</ele>
        <time>2017-01-01T12:08:30Z</time>
      </trkpt>
      <trkpt lat="49.48134" lon="5.70455">
        <ele>249.59948730469</ele>
        <time>2017-01-01T12:08:51Z</time>
      </trkpt>
      <trkpt lat="49.48086" lon="5.70445">
        <ele>252.96398925781</ele>
        <time>2017-01-01T12:09:07Z</time>
      </trkpt>
      <trkpt lat="49.48039" lon="5.70433">
        <ele>254.88659667969</ele>
        <time>2017-01-01T12:09:23Z</time>
      </trkpt>
      <trkpt lat="49.47987" lon="5.70405">
        <ele>256.32873535156</ele>
        <time>2017-01-01T12:09:41Z</time>
      </trkpt>
      <trkpt lat="49.47937" lon="5.70349">
        <ele>260.17395019531</ele>
        <time>2017-01-01T12:10:01Z</time>
      </trkpt>
      <trkpt lat="49.47906" lon="5.7029">
        <ele>262.09655761719</ele>
        <time>2017-01-01T12:10:17Z</time>
      </trkpt>
      <trkpt lat="49.47885" lon="5.70246">
        <ele>263.05786132812</ele>
        <time>2017-01-01T12:10:29Z</time>
      </trkpt>
      <trkpt lat="49.47876" lon="5.70229">
        <ele>264.01928710938</ele>
        <time>2017-01-01T12:10:34Z</time>
      </trkpt>
      <trkpt lat="49.4786" lon="5.70169">
        <ele>269.30651855469</ele>
        <time>2017-01-01T12:10:50Z</time>
      </trkpt>
      <trkpt lat="49.47843" lon="5.70096">
        <ele>275.07446289062</ele>
        <time>2017-01-01T12:11:10Z</time>
      </trkpt>
      <trkpt lat="49.47833" lon="5.70041">
        <ele>277.47766113281</ele>
        <time>2017-01-01T12:11:24Z</time>
      </trkpt>
      <trkpt lat="49.47822" lon="5.70005">
        <ele>283.24560546875</ele>
        <time>2017-01-01T12:11:35Z</time>
      </trkpt>
      <trkpt lat="49.47815" lon="5.69977">
        <ele>283.24560546875</ele>
        <time>2017-01-01T12:11:42Z</time>
      </trkpt>
      <trkpt lat="49.47789" lon="5.69969">
        <ele>289.01354980469</ele>
        <time>2017-01-01T12:11:54Z</time>
      </trkpt>
      <trkpt lat="49.47761" lon="5.69929">
        <ele>289.97485351562</ele>
        <time>2017-01-01T12:12:13Z</time>
      </trkpt>
      <trkpt lat="49.4773" lon="5.69898">
        <ele>291.8974609375</ele>
        <time>2017-01-01T12:12:33Z</time>
      </trkpt>
      <trkpt lat="49.4771" lon="5.69886">
        <ele>296.22351074219</ele>
        <time>2017-01-01T12:12:45Z</time>
      </trkpt>
      <trkpt lat="49.47703" lon="5.6988">
        <ele>296.7041015625</ele>
        <time>2017-01-01T12:12:49Z</time>
      </trkpt>
      <trkpt lat="49.47681" lon="5.69851">
        <ele>299.10729980469</ele>
        <time>2017-01-01T12:13:07Z</time>
      </trkpt>
      <trkpt lat="49.47644" lon="5.69809">
        <ele>301.02990722656</ele>
        <time>2017-01-01T12:13:30Z</time>
      </trkpt>
      <trkpt lat="49.47597" lon="5.69771">
        <ele>303.91394042969</ele>
        <time>2017-01-01T12:13:51Z</time>
      </trkpt>
      <trkpt lat="49.47549" lon="5.69726">
        <ele>307.27856445312</ele>
        <time>2017-01-01T12:14:13Z</time>
      </trkpt>
      <trkpt lat="49.47515" lon="5.69669">
        <ele>310.16247558594</ele>
        <time>2017-01-01T12:14:34Z</time>
      </trkpt>
      <trkpt lat="49.47472" lon="5.69647">
        <ele>309.68188476562</ele>
        <time>2017-01-01T12:14:49Z</time>
      </trkpt>
      <trkpt lat="49.47422" lon="5.69664">
        <ele>308.23986816406</ele>
        <time>2017-01-01T12:15:02Z</time>
      </trkpt>
      <trkpt lat="49.47396" lon="5.69663">
        <ele>307.27856445312</ele>
        <time>2017-01-01T12:15:07Z</time>
      </trkpt>
      <trkpt lat="49.47362" lon="5.69677">
        <ele>306.7978515625</ele>
        <time>2017-01-01T12:15:14Z</time>
      </trkpt>
      <trkpt lat="49.47349" lon="5.69684">
        <ele>307.27856445312</ele>
        <time>2017-01-01T12:15:17Z</time>
      </trkpt>
      <trkpt lat="49.47253" lon="5.69727">
        <ele>303.91394042969</ele>
        <time>2017-01-01T12:15:38Z</time>
      </trkpt>
      <trkpt lat="49.47237" lon="5.69735">
        <ele>303.43322753906</ele>
        <time>2017-01-01T12:15:41Z</time>
      </trkpt>
      <trkpt lat="49.4718" lon="5.69766">
        <ele>300.06872558594</ele>
        <time>2017-01-01T12:15:52Z</time>
      </trkpt>
      <trkpt lat="49.47092" lon="5.69839">
        <ele>291.8974609375</ele>
        <time>2017-01-01T12:16:06Z</time>
      </trkpt>
      <trkpt lat="49.47061" lon="5.69862">
        <ele>289.494140625</ele>
        <time>2017-01-01T12:16:11Z</time>
      </trkpt>
      <trkpt lat="49.4705" lon="5.69889">
        <ele>288.05224609375</ele>
        <time>2017-01-01T12:16:15Z</time>
      </trkpt>
      <trkpt lat="49.47047" lon="5.69906">
        <ele>287.0908203125</ele>
        <time>2017-01-01T12:16:17Z</time>
      </trkpt>
      <trkpt lat="49.47031" lon="5.69946">
        <ele>285.64880371094</ele>
        <time>2017-01-01T12:16:22Z</time>
      </trkpt>
      <trkpt lat="49.46997" lon="5.69961">
        <ele>286.12951660156</ele>
        <time>2017-01-01T12:16:29Z</time>
      </trkpt>
      <trkpt lat="49.46939" lon="5.69937">
        <ele>291.8974609375</ele>
        <time>2017-01-01T12:16:43Z</time>
      </trkpt>
      <trkpt lat="49.4693" lon="5.69935">
        <ele>292.85876464844</ele>
        <time>2017-01-01T12:16:45Z</time>
      </trkpt>
      <trkpt lat="49.46867" lon="5.6992">
        <ele>293.33935546875</ele>
        <time>2017-01-01T12:17:03Z</time>
      </trkpt>
      <trkpt lat="49.46832" lon="5.69961">
        <ele>295.26196289062</ele>
        <time>2017-01-01T12:17:19Z</time>
      </trkpt>
      <trkpt lat="49.46776" lon="5.70024">
        <ele>297.18469238281</ele>
        <time>2017-01-01T12:17:44Z</time>
      </trkpt>
      <trkpt lat="49.46756" lon="5.70044">
        <ele>297.66540527344</ele>
        <time>2017-01-01T12:17:53Z</time>
      </trkpt>
      <trkpt lat="49.4674" lon="5.70044">
        <ele>298.14611816406</ele>
        <time>2017-01-01T12:18:05Z</time>
      </trkpt>
      <trkpt lat="49.4674" lon="5.70043">
        <ele>297.66540527344</ele>
        <time>2017-01-01T12:18:06Z</time>
      </trkpt>
      <trkpt lat="49.46737" lon="5.70033">
        <ele>296.7041015625</ele>
        <time>2017-01-01T12:18:22Z</time>
      </trkpt>
    </trkseg>
  </trk>
</gpx>